Time,TemperatureF,DewpointF,PressureIn,WindDirection,WindDirectionDegrees,WindSpeedMPH,WindSpeedGustMPH,Humidity,HourlyPrecipIn,Conditions,Clouds,dailyrainin,SoftwareType,DateUTC
2013-10-26 00:00:00,41.1,29.1,30.20,WSW,239,1.1,0.0,62,0.00,RA,,0.00,WeatherDisplay:10.37,2013-10-26 04:00:00,
2013-10-26 00:01:00,41.1,29.1,30.20,SW,224,1.1,0.0,62,0.00,RA,,0.00,WeatherDisplay:10.37,2013-10-26 04:01:00,
2013-10-26 00:06:00,40.9,28.9,30.19,West,261,6.9,6.9,62,0.00,RA,,0.00,WeatherDisplay:10.37,2013-10-26 04:06:00,
2013-10-26 00:11:00,40.8,28.8,30.19,West,263,0.0,0.0,62,0.00,CLR,,0.00,WeatherDisplay:10.37,2013-10-26 04:11:00,
2013-10-26 00:12:00,40.8,28.8,30.19,South,191,8.1,8.1,62,0.00,CLR,,0.00,WeatherDisplay:10.37,2013-10-26 04:12:00,
2013-10-26 00:16:00,40.8,28.4,30.20,SSW,208,9.2,9.2,61,0.00,CLR,,0.00,WeatherDisplay:10.37,2013-10-26 04:16:00,
2013-10-26 00:17:00,40.8,28.4,30.20,SSW,208,9.2,9.2,61,0.00,CLR,,0.00,WeatherDisplay:10.37,2013-10-26 04:17:00,
2013-10-26 00:18:00,40.8,28.4,30.20,West,260,10.4,10.4,61,0.00,CLR,,0.00,WeatherDisplay:10.37,2013-10-26 04:18:00,
2013-10-26 00:19:00,40.8,28.4,30.20,SSW,196,10.4,10.4,61,0.00,CLR,,0.00,WeatherDisplay:10.37,2013-10-26 04:19:00,
2013-10-26 00:22:00,40.8,28.4,30.20,WSW,237,0.0,0.0,61,0.00,CLR,,0.00,WeatherDisplay:10.37,2013-10-26 04:22:00,
2013-10-26 00:23:00,40.8,28.4,30.20,NE,47,0.0,0.0,61,0.00,CLR,,0.00,WeatherDisplay:10.37,2013-10-26 04:23:00,
2013-10-26 00:24:00,40.8,28.4,30.20,West,281,0.0,0.0,61,0.00,CLR,,0.00,WeatherDisplay:10.37,2013-10-26 04:24:00,
2013-10-26 00:27:00,40.8,28.4,30.20,WNW,285,1.1,0.0,61,0.00,CLR,,0.00,WeatherDisplay:10.37,2013-10-26 04:27:00,
2013-10-26 00:28:00,40.8,28.4,30.20,WSW,256,1.1,1.1,61,0.00,CLR,,0.00,WeatherDisplay:10.37,2013-10-26 04:28:00,
2013-10-26 00:29:00,40.8,28.4,30.20,WNW,295,3.5,3.5,61,0.00,CLR,,0.00,WeatherDisplay:10.37,2013-10-26 04:29:00,
2013-10-26 00:33:00,40.8,28.4,30.20,SSE,147,1.1,0.0,61,0.00,CLR,,0.00,WeatherDisplay:10.37,2013-10-26 04:33:00,
2013-10-26 00:34:00,40.6,28.2,30.19,SSW,203,1.1,1.1,61,0.00,CLR,,0.00,WeatherDisplay:10.37,2013-10-26 04:34:00,
2013-10-26 00:38:00,40.6,28.6,30.19,SW,222,1.0,0.0,62,0.00,CLR,,0.00,WeatherDisplay:10.37,2013-10-26 04:38:00,
2013-10-26 00:39:00,40.6,28.6,30.19,SW,222,1.1,0.0,62,0.00,CLR,,0.00,WeatherDisplay:10.37,2013-10-26 04:39:00,
2013-10-26 00:40:00,40.6,28.6,30.19,South,184,1.1,1.1,62,0.00,CLR,,0.00,WeatherDisplay:10.37,2013-10-26 04:40:00,
2013-10-26 00:43:00,40.5,28.5,30.19,WSW,239,0.0,0.0,62,0.00,CLR,,0.00,WeatherDisplay:10.37,2013-10-26 04:43:00,
2013-10-26 00:44:00,40.5,28.5,30.19,WSW,239,1.1,0.0,62,0.00,CLR,,0.00,WeatherDisplay:10.37,2013-10-26 04:44:00,
2013-10-26 00:45:00,40.5,28.5,30.19,SW,233,4.6,4.6,62,0.00,CLR,,0.00,WeatherDisplay:10.37,2013-10-26 04:45:00,
2013-10-26 00:46:00,40.5,28.5,30.19,SSE,164,2.3,2.3,62,0.00,CLR,,0.00,WeatherDisplay:10.37,2013-10-26 04:46:00,
2013-10-26 00:48:00,40.5,28.5,30.18,SSW,206,0.0,0.0,62,0.00,CLR,,0.00,WeatherDisplay:10.37,2013-10-26 04:48:00,
2013-10-26 00:49:00,40.5,28.5,30.18,West,274,2.0,0.0,62,0.00,CLR,,0.00,WeatherDisplay:10.37,2013-10-26 04:49:00,
2013-10-26 00:50:00,40.5,28.5,30.18,SW,236,10.4,10.4,62,0.00,CLR,,0.00,WeatherDisplay:10.37,2013-10-26 04:50:00,
2013-10-26 00:51:00,40.5,28.5,30.18,WSW,237,5.8,5.8,62,0.00,CLR,,0.00,WeatherDisplay:10.37,2013-10-26 04:51:00,
2013-10-26 00:54:00,40.3,28.3,30.18,SW,229,9.2,9.2,62,0.00,CLR,,0.00,WeatherDisplay:10.37,2013-10-26 04:54:00,
2013-10-26 00:55:00,40.3,28.3,30.18,South,185,9.2,0.0,62,0.00,CLR,,0.00,WeatherDisplay:10.37,2013-10-26 04:55:00,
2013-10-26 00:56:00,40.3,28.3,30.18,SW,229,1.1,1.1,62,0.00,CLR,,0.00,WeatherDisplay:10.37,2013-10-26 04:56:00,
2013-10-26 01:00:00,40.3,27.9,30.18,West,280,1.1,0.0,61,0.00,CLR,,0.00,WeatherDisplay:10.37,2013-10-26 05:00:00,
2013-10-26 01:01:00,40.3,27.9,30.18,WSW,246,8.1,0.0,61,0.00,CLR,,0.00,WeatherDisplay:10.37,2013-10-26 05:01:00,
2013-10-26 01:02:00,40.3,27.9,30.18,South,179,0.0,0.0,61,0.00,CLR,,0.00,WeatherDisplay:10.37,2013-10-26 05:02:00,
2013-10-26 01:05:00,40.3,28.3,30.18,SW,220,1.1,1.1,62,0.00,CLR,,0.00,WeatherDisplay:10.37,2013-10-26 05:05:00,
2013-10-26 01:06:00,40.3,28.3,30.18,West,275,6.9,6.9,62,0.00,CLR,,0.00,WeatherDisplay:10.37,2013-10-26 05:06:00,
2013-10-26 01:07:00,40.2,27.8,30.18,ESE,119,6.0,6.0,61,0.00,CLR,,0.00,WeatherDisplay:10.37,2013-10-26 05:07:00,
2013-10-26 01:10:00,40.2,27.8,30.18,SW,220,6.9,6.9,61,0.00,CLR,,0.00,WeatherDisplay:10.37,2013-10-26 05:10:00,
2013-10-26 01:11:00,40.2,27.8,30.18,SW,216,0.0,0.0,61,0.00,CLR,,0.00,WeatherDisplay:10.37,2013-10-26 05:11:00,
2013-10-26 01:12:00,40.2,27.8,30.18,WSW,246,0.0,0.0,61,0.00,CLR,,0.00,WeatherDisplay:10.37,2013-10-26 05:12:00,
2013-10-26 01:13:00,40.2,27.8,30.18,SSE,154,1.1,0.0,61,0.00,CLR,,0.00,WeatherDisplay:10.37,2013-10-26 05:13:00,
2013-10-26 01:15:00,40.2,28.2,30.18,WSW,246,0.0,0.0,62,0.00,CLR,,0.00,WeatherDisplay:10.37,2013-10-26 05:15:00,
2013-10-26 01:16:00,40.2,27.8,30.19,WSW,247,0.0,0.0,61,0.00,CLR,,0.00,WeatherDisplay:10.37,2013-10-26 05:16:00,
2013-10-26 01:17:00,40.2,27.8,30.19,WSW,246,0.0,0.0,61,0.00,CLR,,0.00,WeatherDisplay:10.37,2013-10-26 05:17:00,
2013-10-26 01:18:00,40.2,27.8,30.19,WSW,239,0.0,0.0,61,0.00,CLR,,0.00,WeatherDisplay:10.37,2013-10-26 05:18:00,
2013-10-26 01:20:00,40.2,27.8,30.19,South,182,8.1,8.1,61,0.00,CLR,,0.00,WeatherDisplay:10.37,2013-10-26 05:20:00,
2013-10-26 01:21:00,40.2,27.8,30.19,West,275,4.6,0.0,61,0.00,CLR,,0.00,WeatherDisplay:10.37,2013-10-26 05:21:00,
2013-10-26 01:23:00,40.2,27.8,30.19,South,172,1.1,1.1,61,0.00,CLR,,0.00,WeatherDisplay:10.37,2013-10-26 05:23:00,
2013-10-26 01:25:00,40.2,27.4,30.19,WSW,240,1.0,0.0,60,0.00,CLR,,0.00,WeatherDisplay:10.37,2013-10-26 05:25:00,
2013-10-26 01:26:00,40.2,27.4,30.19,SSW,206,0.0,0.2,60,0.00,CLR,,0.00,WeatherDisplay:10.37,2013-10-26 05:26:00,
2013-10-26 01:27:00,40.2,27.4,30.19,SW,229,1.1,0.0,60,0.00,CLR,,0.00,WeatherDisplay:10.37,2013-10-26 05:27:00,
2013-10-26 01:28:00,40.2,27.4,30.19,WSW,237,0.0,0.0,60,0.00,CLR,,0.00,WeatherDisplay:10.37,2013-10-26 05:28:00,
2013-10-26 01:31:00,40.2,27.4,30.19,WSW,241,0.0,0.0,60,0.00,CLR,,0.00,WeatherDisplay:10.37,2013-10-26 05:31:00,
2013-10-26 01:32:00,40.2,27.4,30.18,SW,227,0.0,0.0,60,0.00,CLR,,0.00,WeatherDisplay:10.37,2013-10-26 05:32:00,
2013-10-26 01:33:00,40.2,27.4,30.18,SSW,202,0.0,0.0,60,0.00,CLR,,0.00,WeatherDisplay:10.37,2013-10-26 05:33:00,
2013-10-26 01:34:00,40.2,27.4,30.18,SSW,202,0.0,0.0,60,0.00,CLR,,0.00,WeatherDisplay:10.37,2013-10-26 05:34:00,
2013-10-26 01:36:00,40.2,27.4,30.18,South,189,0.0,0.0,60,0.00,CLR,,0.00,WeatherDisplay:10.37,2013-10-26 05:36:00,
2013-10-26 01:37:00,40.2,27.4,30.18,West,265,10.4,10.4,60,0.00,CLR,,0.00,WeatherDisplay:10.37,2013-10-26 05:37:00,
2013-10-26 01:39:00,40.1,27.3,30.18,SSE,154,0.0,0.0,60,0.00,CLR,,0.00,WeatherDisplay:10.37,2013-10-26 05:39:00,
2013-10-26 01:40:00,40.1,27.3,30.18,SSE,168,1.1,0.0,60,0.00,CLR,,0.00,WeatherDisplay:10.37,2013-10-26 05:40:00,
2013-10-26 01:41:00,40.1,27.3,30.17,SSW,203,0.0,0.0,60,0.00,CLR,,0.00,WeatherDisplay:10.37,2013-10-26 05:41:00,
2013-10-26 01:42:00,39.9,26.7,30.18,WSW,251,11.5,11.5,59,0.00,CLR,,0.00,WeatherDisplay:10.37,2013-10-26 05:42:00,
2013-10-26 01:45:00,39.8,26.6,30.17,SW,230,0.0,0.0,59,0.00,CLR,,0.00,WeatherDisplay:10.37,2013-10-26 05:45:00,
2013-10-26 01:46:00,39.8,26.6,30.17,SW,234,0.0,0.0,59,0.00,CLR,,0.00,WeatherDisplay:10.37,2013-10-26 05:46:00,
2013-10-26 01:47:00,39.8,26.6,30.17,SW,234,0.0,0.0,59,0.00,CLR,,0.00,WeatherDisplay:10.37,2013-10-26 05:47:00,
2013-10-26 01:48:00,39.8,26.6,30.17,South,175,5.8,5.8,59,0.00,CLR,,0.00,WeatherDisplay:10.37,2013-10-26 05:48:00,
2013-10-26 01:50:00,39.6,26.4,30.17,South,189,3.5,0.0,59,0.00,CLR,,0.00,WeatherDisplay:10.37,2013-10-26 05:50:00,
2013-10-26 01:52:00,39.6,26.4,30.17,South,189,1.1,1.1,59,0.00,CLR,,0.00,WeatherDisplay:10.37,2013-10-26 05:52:00,
2013-10-26 01:53:00,39.5,26.3,30.17,South,186,1.1,1.1,59,0.00,CLR,,0.00,WeatherDisplay:10.37,2013-10-26 05:53:00,
2013-10-26 01:55:00,39.5,26.8,30.17,West,274,7.0,7.0,60,0.00,CLR,,0.00,WeatherDisplay:10.37,2013-10-26 05:55:00,
2013-10-26 01:57:00,39.5,26.8,30.17,SW,217,1.1,1.1,60,0.00,CLR,,0.00,WeatherDisplay:10.37,2013-10-26 05:57:00,
2013-10-26 01:58:00,39.3,26.2,30.17,SSW,209,0.0,0.0,59,0.00,CLR,,0.00,WeatherDisplay:10.37,2013-10-26 05:58:00,
2013-10-26 02:00:00,39.3,26.2,30.17,SSW,198,1.1,0.0,59,0.00,CLR,,0.00,WeatherDisplay:10.37,2013-10-26 06:00:00,
2013-10-26 02:02:00,39.3,26.2,30.16,SSE,161,1.1,1.4,59,0.00,CLR,,0.00,WeatherDisplay:10.37,2013-10-26 06:02:00,
2013-10-26 02:03:00,39.3,26.2,30.16,WSW,247,8.1,8.1,59,0.00,CLR,,0.00,WeatherDisplay:10.37,2013-10-26 06:03:00,
2013-10-26 02:04:00,39.3,26.2,30.17,West,274,10.4,10.4,59,0.00,CLR,,0.00,WeatherDisplay:10.37,2013-10-26 06:04:00,
2013-10-26 02:06:00,39.3,26.6,30.16,SSW,210,1.1,0.0,60,0.00,CLR,,0.00,WeatherDisplay:10.37,2013-10-26 06:06:00,
2013-10-26 02:07:00,39.3,26.6,30.16,ESE,109,0.0,0.0,60,0.00,CLR,,0.00,WeatherDisplay:10.37,2013-10-26 06:07:00,
2013-10-26 02:08:00,39.3,26.6,30.16,ESE,109,0.0,0.0,60,0.00,CLR,,0.00,WeatherDisplay:10.37,2013-10-26 06:08:00,
2013-10-26 02:09:00,39.2,26.5,30.16,SE,136,1.0,0.0,60,0.00,CLR,,0.00,WeatherDisplay:10.37,2013-10-26 06:09:00,
2013-10-26 02:11:00,39.2,26.5,30.16,SE,141,1.0,1.0,60,0.00,CLR,,0.00,WeatherDisplay:10.37,2013-10-26 06:11:00,
2013-10-26 02:13:00,39.2,26.5,30.16,South,172,1.1,0.0,60,0.00,CLR,,0.00,WeatherDisplay:10.37,2013-10-26 06:13:00,
2013-10-26 02:14:00,39.2,26.5,30.16,SSE,157,1.1,1.1,60,0.00,CLR,,0.00,WeatherDisplay:10.37,2013-10-26 06:14:00,
2013-10-26 02:17:00,39.2,26.5,30.16,SSE,158,0.0,0.0,60,0.00,CLR,,0.00,WeatherDisplay:10.37,2013-10-26 06:17:00,
2013-10-26 02:18:00,39.2,26.9,30.16,SSE,158,0.0,0.0,61,0.00,CLR,,0.00,WeatherDisplay:10.37,2013-10-26 06:18:00,
2013-10-26 02:20:00,39.2,26.9,30.16,SSE,160,0.0,0.0,61,0.00,CLR,,0.00,WeatherDisplay:10.37,2013-10-26 06:20:00,
2013-10-26 02:22:00,39.1,26.8,30.16,South,174,0.0,0.0,61,0.00,CLR,,0.00,WeatherDisplay:10.37,2013-10-26 06:22:00,
2013-10-26 02:23:00,39.1,26.8,30.16,SW,223,3.0,3.0,61,0.00,CLR,,0.00,WeatherDisplay:10.37,2013-10-26 06:23:00,
2013-10-26 02:24:00,39.1,26.8,30.16,SSE,165,5.8,5.8,61,0.00,CLR,,0.00,WeatherDisplay:10.37,2013-10-26 06:24:00,
2013-10-26 02:25:00,39.1,26.8,30.16,SSW,203,0.0,0.0,61,0.00,CLR,,0.00,WeatherDisplay:10.37,2013-10-26 06:25:00,
2013-10-26 02:27:00,39.1,26.8,30.16,WSW,247,1.1,0.0,61,0.00,CLR,,0.00,WeatherDisplay:10.37,2013-10-26 06:27:00,
2013-10-26 02:28:00,39.1,26.8,30.16,WSW,247,1.1,0.0,61,0.00,CLR,,0.00,WeatherDisplay:10.37,2013-10-26 06:28:00,
2013-10-26 02:29:00,39.1,26.8,30.16,WSW,247,0.0,0.0,61,0.00,CLR,,0.00,WeatherDisplay:10.37,2013-10-26 06:29:00,
2013-10-26 02:30:00,39.1,26.8,30.16,SSE,152,0.0,0.1,61,0.00,CLR,,0.00,WeatherDisplay:10.37,2013-10-26 06:30:00,
2013-10-26 02:32:00,39.1,26.8,30.15,SW,223,0.0,0.0,61,0.00,CLR,,0.00,WeatherDisplay:10.37,2013-10-26 06:32:00,
2013-10-26 02:33:00,39.1,26.8,30.15,South,186,0.0,0.1,61,0.00,CLR,,0.00,WeatherDisplay:10.37,2013-10-26 06:33:00,
2013-10-26 02:34:00,39.1,27.2,30.15,South,182,1.1,1.1,62,0.00,CLR,,0.00,WeatherDisplay:10.37,2013-10-26 06:34:00,
2013-10-26 02:35:00,39.1,27.2,30.16,WNW,284,1.1,0.0,62,0.00,CLR,,0.00,WeatherDisplay:10.37,2013-10-26 06:35:00,
2013-10-26 02:36:00,39.1,27.2,30.15,SSE,155,0.0,0.0,62,0.00,CLR,,0.00,WeatherDisplay:10.37,2013-10-26 06:36:00,
2013-10-26 02:38:00,39.1,27.2,30.15,SSE,158,11.5,11.5,62,0.00,CLR,,0.00,WeatherDisplay:10.37,2013-10-26 06:38:00,
2013-10-26 02:39:00,39.1,27.2,30.15,SSE,160,11.5,11.5,62,0.00,CLR,,0.00,WeatherDisplay:10.37,2013-10-26 06:39:00,
2013-10-26 02:41:00,39.1,26.8,30.15,SE,136,0.0,0.0,61,0.00,CLR,,0.00,WeatherDisplay:10.37,2013-10-26 06:41:00,
2013-10-26 02:44:00,39.1,27.2,30.15,SSW,206,6.9,0.0,62,0.00,CLR,,0.00,WeatherDisplay:10.37,2013-10-26 06:44:00,
2013-10-26 02:45:00,39.1,27.2,30.15,WNW,284,0.0,0.0,62,0.00,CLR,,0.00,WeatherDisplay:10.37,2013-10-26 06:45:00,
2013-10-26 02:46:00,38.9,27.0,30.15,SSW,208,0.0,0.0,62,0.00,CLR,,0.00,WeatherDisplay:10.37,2013-10-26 06:46:00,
2013-10-26 02:49:00,38.9,27.4,30.15,SSE,167,11.5,11.5,63,0.00,CLR,,0.00,WeatherDisplay:10.37,2013-10-26 06:49:00,
2013-10-26 02:50:00,38.9,27.4,30.15,WSW,251,1.1,1.1,63,0.00,CLR,,0.00,WeatherDisplay:10.37,2013-10-26 06:50:00,
2013-10-26 02:51:00,38.9,27.4,30.15,SSW,198,3.5,3.5,63,0.00,CLR,,0.00,WeatherDisplay:10.37,2013-10-26 06:51:00,
2013-10-26 02:54:00,38.9,27.4,30.15,SSW,198,6.9,6.9,63,0.00,CLR,,0.00,WeatherDisplay:10.37,2013-10-26 06:54:00,
2013-10-26 02:55:00,38.9,27.4,30.15,SE,133,6.9,6.9,63,0.00,CLR,,0.00,WeatherDisplay:10.37,2013-10-26 06:55:00,
2013-10-26 02:56:00,38.8,27.3,30.14,SSW,208,1.1,0.0,63,0.00,CLR,,0.00,WeatherDisplay:10.37,2013-10-26 06:56:00,
2013-10-26 02:57:00,38.8,27.3,30.14,West,278,5.8,5.8,63,0.00,CLR,,0.00,WeatherDisplay:10.37,2013-10-26 06:57:00,
2013-10-26 02:59:00,38.8,27.3,30.14,SE,144,1.0,1.0,63,0.00,CLR,,0.00,WeatherDisplay:10.37,2013-10-26 06:59:00,
2013-10-26 03:00:00,38.8,27.3,30.14,SSE,152,1.1,1.1,63,0.00,CLR,,0.00,WeatherDisplay:10.37,2013-10-26 07:00:00,
2013-10-26 03:02:00,38.8,27.3,30.14,SSE,167,1.0,1.0,63,0.00,CLR,,0.00,WeatherDisplay:10.37,2013-10-26 07:02:00,
2013-10-26 03:04:00,38.8,27.3,30.14,South,169,5.8,5.8,63,0.00,CLR,,0.00,WeatherDisplay:10.37,2013-10-26 07:04:00,
2013-10-26 03:05:00,38.6,27.1,30.14,South,169,5.8,5.8,63,0.00,CLR,,0.00,WeatherDisplay:10.37,2013-10-26 07:05:00,
2013-10-26 03:06:00,38.6,27.1,30.13,South,169,1.1,1.1,63,0.00,CLR,,0.00,WeatherDisplay:10.37,2013-10-26 07:06:00,
2013-10-26 03:07:00,38.6,27.1,30.14,South,176,1.1,1.1,63,0.00,CLR,,0.00,WeatherDisplay:10.37,2013-10-26 07:07:00,
2013-10-26 03:10:00,38.6,27.1,30.14,SSE,168,0.0,0.0,63,0.00,CLR,,0.00,WeatherDisplay:10.37,2013-10-26 07:10:00,
2013-10-26 03:11:00,38.6,27.1,30.14,SSE,167,0.0,0.0,63,0.00,CLR,,0.00,WeatherDisplay:10.37,2013-10-26 07:11:00,
2013-10-26 03:12:00,38.6,27.1,30.14,SW,227,1.1,1.1,63,0.00,CLR,,0.00,WeatherDisplay:10.37,2013-10-26 07:12:00,
2013-10-26 03:13:00,38.6,27.1,30.14,SE,138,2.3,2.3,63,0.00,CLR,,0.00,WeatherDisplay:10.37,2013-10-26 07:13:00,
2013-10-26 03:15:00,38.5,27.4,30.14,SSE,162,1.1,1.1,64,0.00,CLR,,0.00,WeatherDisplay:10.37,2013-10-26 07:15:00,
2013-10-26 03:16:00,38.5,27.4,30.14,SSE,160,1.1,1.1,64,0.00,CLR,,0.00,WeatherDisplay:10.37,2013-10-26 07:16:00,
2013-10-26 03:17:00,38.5,27.4,30.14,WSW,254,1.1,0.0,64,0.00,CLR,,0.00,WeatherDisplay:10.37,2013-10-26 07:17:00,
2013-10-26 03:18:00,38.5,27.4,30.14,NW,308,0.0,0.0,64,0.00,CLR,,0.00,WeatherDisplay:10.37,2013-10-26 07:18:00,
2013-10-26 03:20:00,38.3,27.2,30.14,South,178,0.0,0.0,64,0.00,CLR,,0.00,WeatherDisplay:10.37,2013-10-26 07:20:00,
2013-10-26 03:21:00,38.3,27.2,30.14,ESE,106,1.1,1.1,64,0.00,CLR,,0.00,WeatherDisplay:10.37,2013-10-26 07:21:00,
2013-10-26 03:23:00,38.2,27.1,30.14,South,176,1.1,0.0,64,0.00,CLR,,0.00,WeatherDisplay:10.37,2013-10-26 07:23:00,
2013-10-26 03:25:00,38.2,27.1,30.13,SE,130,1.1,0.0,64,0.00,CLR,,0.00,WeatherDisplay:10.37,2013-10-26 07:25:00,
2013-10-26 03:26:00,38.0,27.3,30.13,SSE,152,1.1,0.0,65,0.00,CLR,,0.00,WeatherDisplay:10.37,2013-10-26 07:26:00,
2013-10-26 03:28:00,37.9,27.2,30.13,SE,134,1.1,0.0,65,0.00,CLR,,0.00,WeatherDisplay:10.37,2013-10-26 07:28:00,
2013-10-26 03:29:00,37.9,27.2,30.13,SW,219,1.1,0.0,65,0.00,CLR,,0.00,WeatherDisplay:10.37,2013-10-26 07:29:00,
2013-10-26 03:30:00,37.9,27.2,30.13,SSW,210,0.0,0.0,65,0.00,CLR,,0.00,WeatherDisplay:10.37,2013-10-26 07:30:00,
2013-10-26 03:31:00,37.8,27.1,30.13,SSE,151,0.0,0.1,65,0.00,CLR,,0.00,WeatherDisplay:10.37,2013-10-26 07:31:00,
2013-10-26 03:32:00,37.8,27.1,30.13,SSE,152,1.1,1.1,65,0.00,CLR,,0.00,WeatherDisplay:10.37,2013-10-26 07:32:00,
2013-10-26 03:33:00,37.8,27.1,30.13,SW,227,0.0,0.0,65,0.00,CLR,,0.00,WeatherDisplay:10.37,2013-10-26 07:33:00,
2013-10-26 03:34:00,37.8,27.5,30.13,SE,126,1.1,0.0,66,0.00,CLR,,0.00,WeatherDisplay:10.37,2013-10-26 07:34:00,
2013-10-26 03:35:00,37.8,27.1,30.13,South,171,1.1,1.1,65,0.00,CLR,,0.00,WeatherDisplay:10.37,2013-10-26 07:35:00,
2013-10-26 03:36:00,37.8,27.1,30.13,SSE,150,1.1,0.0,65,0.00,CLR,,0.00,WeatherDisplay:10.37,2013-10-26 07:36:00,
2013-10-26 03:37:00,37.8,27.1,30.13,SSE,150,1.1,1.1,65,0.00,CLR,,0.00,WeatherDisplay:10.37,2013-10-26 07:37:00,
2013-10-26 03:38:00,37.8,27.1,30.13,South,186,11.5,11.5,65,0.00,CLR,,0.00,WeatherDisplay:10.37,2013-10-26 07:38:00,
2013-10-26 03:39:00,37.8,27.1,30.12,SSW,205,11.5,11.5,65,0.00,CLR,,0.00,WeatherDisplay:10.37,2013-10-26 07:39:00,
2013-10-26 03:40:00,37.8,27.1,30.12,SSE,157,1.1,0.0,65,0.00,CLR,,0.00,WeatherDisplay:10.37,2013-10-26 07:40:00,
2013-10-26 03:42:00,37.8,27.1,30.12,South,174,1.1,0.0,65,0.00,CLR,,0.00,WeatherDisplay:10.37,2013-10-26 07:42:00,
2013-10-26 03:43:00,37.8,27.1,30.12,South,181,0.0,0.1,65,0.00,CLR,,0.00,WeatherDisplay:10.37,2013-10-26 07:43:00,
2013-10-26 03:45:00,37.8,27.1,30.12,SSE,148,1.1,1.1,65,0.00,CLR,,0.00,WeatherDisplay:10.37,2013-10-26 07:45:00,
2013-10-26 03:47:00,37.8,27.1,30.12,South,176,3.5,3.5,65,0.00,CLR,,0.00,WeatherDisplay:10.37,2013-10-26 07:47:00,
2013-10-26 03:48:00,37.8,27.1,30.12,SSW,210,6.9,0.0,65,0.00,CLR,,0.00,WeatherDisplay:10.37,2013-10-26 07:48:00,
2013-10-26 03:50:00,37.8,27.1,30.12,ESE,120,0.0,0.1,65,0.00,CLR,,0.00,WeatherDisplay:10.37,2013-10-26 07:50:00,
2013-10-26 03:51:00,37.8,27.1,30.11,West,260,1.1,1.1,65,0.00,CLR,,0.00,WeatherDisplay:10.37,2013-10-26 07:51:00,
2013-10-26 03:52:00,37.8,27.1,30.11,ESE,106,1.1,0.0,65,0.00,CLR,,0.00,WeatherDisplay:10.37,2013-10-26 07:52:00,
2013-10-26 03:53:00,37.8,27.1,30.11,ESE,107,0.0,0.1,65,0.00,CLR,,0.00,WeatherDisplay:10.37,2013-10-26 07:53:00,
2013-10-26 03:56:00,37.9,27.2,30.11,SW,232,10.0,10.0,65,0.00,CLR,,0.00,WeatherDisplay:10.37,2013-10-26 07:56:00,
2013-10-26 03:57:00,37.9,27.2,30.11,South,179,10.4,10.4,65,0.00,CLR,,0.00,WeatherDisplay:10.37,2013-10-26 07:57:00,
2013-10-26 03:58:00,37.9,26.8,30.11,SSE,162,1.1,1.1,64,0.00,CLR,,0.00,WeatherDisplay:10.37,2013-10-26 07:58:00,
2013-10-26 03:59:00,37.9,26.8,30.11,SSE,157,1.1,1.1,64,0.00,CLR,,0.00,WeatherDisplay:10.37,2013-10-26 07:59:00,
2013-10-26 04:01:00,37.9,26.8,30.10,SSW,193,6.9,6.9,64,0.00,CLR,,0.00,WeatherDisplay:10.37,2013-10-26 08:01:00,
2013-10-26 04:02:00,37.9,26.8,30.10,East,96,1.1,1.1,64,0.00,CLR,,0.00,WeatherDisplay:10.37,2013-10-26 08:02:00,
2013-10-26 04:04:00,37.9,26.8,30.10,SSE,165,0.0,0.0,64,0.00,CLR,,0.00,WeatherDisplay:10.37,2013-10-26 08:04:00,
2013-10-26 04:06:00,38.0,26.9,30.10,SE,141,1.1,0.0,64,0.00,CLR,,0.00,WeatherDisplay:10.37,2013-10-26 08:06:00,
2013-10-26 04:07:00,38.0,26.9,30.10,SSW,209,1.1,0.0,64,0.00,CLR,,0.00,WeatherDisplay:10.37,2013-10-26 08:07:00,
2013-10-26 04:08:00,38.0,26.9,30.10,SW,227,1.1,1.1,64,0.00,CLR,,0.00,WeatherDisplay:10.37,2013-10-26 08:08:00,
2013-10-26 04:09:00,38.0,26.9,30.10,SE,137,0.0,0.1,64,0.00,CLR,,0.00,WeatherDisplay:10.37,2013-10-26 08:09:00,
2013-10-26 04:11:00,38.0,26.9,30.10,South,184,1.1,1.1,64,0.00,CLR,,0.00,WeatherDisplay:10.37,2013-10-26 08:11:00,
2013-10-26 04:12:00,38.0,26.9,30.10,SW,226,3.5,3.5,64,0.00,CLR,,0.00,WeatherDisplay:10.37,2013-10-26 08:12:00,
2013-10-26 04:13:00,38.0,26.9,30.10,SE,131,1.1,1.1,64,0.00,CLR,,0.00,WeatherDisplay:10.37,2013-10-26 08:13:00,
2013-10-26 04:14:00,38.0,26.9,30.10,SSW,198,1.1,1.1,64,0.00,CLR,,0.00,WeatherDisplay:10.37,2013-10-26 08:14:00,
2013-10-26 04:16:00,38.0,26.9,30.09,SSE,160,11.0,11.0,64,0.00,CLR,,0.00,WeatherDisplay:10.37,2013-10-26 08:16:00,
2013-10-26 04:17:00,38.0,26.5,30.09,SSE,167,11.5,11.5,63,0.00,CLR,,0.00,WeatherDisplay:10.37,2013-10-26 08:17:00,
2013-10-26 04:18:00,38.0,26.5,30.09,SSE,161,1.1,1.1,63,0.00,CLR,,0.00,WeatherDisplay:10.37,2013-10-26 08:18:00,
2013-10-26 04:19:00,38.0,26.5,30.09,SW,219,1.1,1.1,63,0.00,CLR,,0.00,WeatherDisplay:10.37,2013-10-26 08:19:00,
2013-10-26 04:21:00,38.2,26.7,30.09,SSW,200,0.0,0.1,63,0.00,CLR,,0.00,WeatherDisplay:10.37,2013-10-26 08:21:00,
2013-10-26 04:22:00,38.2,26.7,30.10,WSW,248,1.1,1.7,63,0.00,CLR,,0.00,WeatherDisplay:10.37,2013-10-26 08:22:00,
2013-10-26 04:23:00,38.2,26.7,30.09,SE,133,11.5,11.5,63,0.00,CLR,,0.00,WeatherDisplay:10.37,2013-10-26 08:23:00,
2013-10-26 04:25:00,38.2,26.7,30.09,SE,141,6.9,6.9,63,0.00,CLR,,0.00,WeatherDisplay:10.37,2013-10-26 08:25:00,
2013-10-26 04:26:00,38.2,26.3,30.10,SW,229,0.0,0.0,62,0.00,CLR,,0.00,WeatherDisplay:10.37,2013-10-26 08:26:00,
2013-10-26 04:27:00,38.2,26.7,30.10,SSW,212,0.0,0.0,63,0.00,CLR,,0.00,WeatherDisplay:10.37,2013-10-26 08:27:00,
2013-10-26 04:29:00,38.2,26.7,30.10,SE,134,1.1,1.1,63,0.00,CLR,,0.00,WeatherDisplay:10.37,2013-10-26 08:29:00,
2013-10-26 04:30:00,38.3,26.4,30.10,SSW,192,1.1,1.1,62,0.00,CLR,,0.00,WeatherDisplay:10.37,2013-10-26 08:30:00,
2013-10-26 04:32:00,38.3,26.4,30.10,West,270,1.1,0.0,62,0.00,CLR,,0.00,WeatherDisplay:10.37,2013-10-26 08:32:00,
2013-10-26 04:33:00,38.3,26.4,30.10,SE,140,0.0,0.0,62,0.00,CLR,,0.00,WeatherDisplay:10.37,2013-10-26 08:33:00,
2013-10-26 04:34:00,38.3,26.4,30.09,South,179,8.1,8.1,62,0.00,CLR,,0.00,WeatherDisplay:10.37,2013-10-26 08:34:00,
2013-10-26 04:36:00,38.3,26.0,30.09,West,263,11.0,11.0,61,0.00,CLR,,0.00,WeatherDisplay:10.37,2013-10-26 08:36:00,
2013-10-26 04:37:00,38.3,26.0,30.09,SSE,158,11.5,11.5,61,0.00,CLR,,0.00,WeatherDisplay:10.37,2013-10-26 08:37:00,
2013-10-26 04:38:00,38.3,26.0,30.09,SE,145,1.1,1.1,61,0.00,CLR,,0.00,WeatherDisplay:10.37,2013-10-26 08:38:00,
2013-10-26 04:39:00,38.3,26.0,30.09,South,189,1.1,1.1,61,0.00,CLR,,0.00,WeatherDisplay:10.37,2013-10-26 08:39:00,
2013-10-26 04:41:00,38.3,26.4,30.09,SE,130,3.0,3.0,62,0.00,CLR,,0.00,WeatherDisplay:10.37,2013-10-26 08:41:00,
2013-10-26 04:43:00,38.3,26.4,30.09,SSW,202,4.6,0.0,62,0.00,CLR,,0.00,WeatherDisplay:10.37,2013-10-26 08:43:00,
2013-10-26 04:44:00,38.3,26.4,30.09,SSE,167,1.1,0.0,62,0.00,CLR,,0.00,WeatherDisplay:10.37,2013-10-26 08:44:00,
2013-10-26 04:46:00,38.3,26.4,30.08,South,179,1.1,1.3,62,0.00,CLR,,0.00,WeatherDisplay:10.37,2013-10-26 08:46:00,
2013-10-26 04:48:00,38.3,26.0,30.08,South,189,1.1,1.1,61,0.00,CLR,,0.00,WeatherDisplay:10.37,2013-10-26 08:48:00,
2013-10-26 04:49:00,38.3,26.4,30.08,ESE,120,2.0,2.0,62,0.00,CLR,,0.00,WeatherDisplay:10.37,2013-10-26 08:49:00,
2013-10-26 04:50:00,38.3,26.0,30.08,SE,137,3.5,3.5,61,0.00,CLR,,0.00,WeatherDisplay:10.37,2013-10-26 08:50:00,
2013-10-26 04:51:00,38.3,26.4,30.08,ESE,106,9.0,9.0,62,0.00,CLR,,0.00,WeatherDisplay:10.37,2013-10-26 08:51:00,
2013-10-26 04:52:00,38.3,26.4,30.08,SSW,192,10.4,10.4,62,0.00,CLR,,0.00,WeatherDisplay:10.37,2013-10-26 08:52:00,
2013-10-26 04:54:00,38.3,26.0,30.08,SW,227,8.1,8.1,61,0.00,CLR,,0.00,WeatherDisplay:10.37,2013-10-26 08:54:00,
2013-10-26 04:55:00,38.3,26.0,30.08,South,184,6.9,6.9,61,0.00,CLR,,0.00,WeatherDisplay:10.37,2013-10-26 08:55:00,
2013-10-26 04:57:00,38.3,26.0,30.08,SSW,196,8.1,8.1,61,0.00,CLR,,0.00,WeatherDisplay:10.37,2013-10-26 08:57:00,
2013-10-26 04:59:00,38.3,26.0,30.08,SW,232,1.1,0.0,61,0.00,CLR,,0.00,WeatherDisplay:10.37,2013-10-26 08:59:00,
2013-10-26 05:00:00,38.5,26.2,30.08,West,271,1.1,0.0,61,0.00,CLR,,0.00,WeatherDisplay:10.37,2013-10-26 09:00:00,
2013-10-26 05:02:00,38.3,26.0,30.08,WNW,292,1.1,1.1,61,0.00,CLR,,0.00,WeatherDisplay:10.37,2013-10-26 09:02:00,
2013-10-26 05:03:00,38.3,26.0,30.08,WSW,251,1.1,1.1,61,0.00,CLR,,0.00,WeatherDisplay:10.37,2013-10-26 09:03:00,
2013-10-26 05:04:00,38.3,26.0,30.08,SE,127,1.1,0.0,61,0.00,CLR,,0.00,WeatherDisplay:10.37,2013-10-26 09:04:00,
2013-10-26 05:05:00,38.5,26.2,30.08,WSW,248,1.1,1.1,61,0.00,CLR,,0.00,WeatherDisplay:10.37,2013-10-26 09:05:00,
2013-10-26 05:07:00,38.5,26.2,30.08,SSE,164,0.0,0.1,61,0.00,CLR,,0.00,WeatherDisplay:10.37,2013-10-26 09:07:00,
2013-10-26 05:08:00,38.3,26.0,30.08,ESE,119,1.1,0.0,61,0.00,CLR,,0.00,WeatherDisplay:10.37,2013-10-26 09:08:00,
2013-10-26 05:09:00,38.3,26.0,30.08,SSW,212,1.1,1.1,61,0.00,CLR,,0.00,WeatherDisplay:10.37,2013-10-26 09:09:00,
2013-10-26 05:10:00,38.3,26.0,30.08,SSW,212,1.1,1.1,61,0.00,CLR,,0.00,WeatherDisplay:10.37,2013-10-26 09:10:00,
2013-10-26 05:11:00,38.3,26.0,30.08,South,188,1.1,0.0,61,0.00,CLR,,0.00,WeatherDisplay:10.37,2013-10-26 09:11:00,
2013-10-26 05:13:00,38.3,26.0,30.08,SSE,157,1.1,1.1,61,0.00,CLR,,0.00,WeatherDisplay:10.37,2013-10-26 09:13:00,
2013-10-26 05:14:00,38.3,26.0,30.08,SE,143,0.0,1.1,61,0.00,CLR,,0.00,WeatherDisplay:10.37,2013-10-26 09:14:00,
2013-10-26 05:15:00,38.3,25.6,30.08,SSE,147,3.5,3.5,60,0.00,CLR,,0.00,WeatherDisplay:10.37,2013-10-26 09:15:00,
2013-10-26 05:16:00,38.3,25.6,30.08,SSE,152,0.0,0.0,60,0.00,CLR,,0.00,WeatherDisplay:10.37,2013-10-26 09:16:00,
2013-10-26 05:18:00,38.3,26.0,30.08,West,265,3.0,3.0,61,0.00,CLR,,0.00,WeatherDisplay:10.37,2013-10-26 09:18:00,
2013-10-26 05:20:00,38.3,25.6,30.08,SSE,152,4.6,4.6,60,0.00,CLR,,0.00,WeatherDisplay:10.37,2013-10-26 09:20:00,
2013-10-26 05:21:00,38.5,25.8,30.08,SW,223,1.1,1.1,60,0.00,CLR,,0.00,WeatherDisplay:10.37,2013-10-26 09:21:00,
2013-10-26 05:23:00,38.5,25.8,30.08,SSW,208,1.1,1.1,60,0.00,CLR,,0.00,WeatherDisplay:10.37,2013-10-26 09:23:00,
2013-10-26 05:24:00,38.5,25.8,30.08,West,280,1.1,0.0,60,0.00,CLR,,0.00,WeatherDisplay:10.37,2013-10-26 09:24:00,
2013-10-26 05:25:00,38.5,25.8,30.08,SW,227,0.0,0.0,60,0.00,CLR,,0.00,WeatherDisplay:10.37,2013-10-26 09:25:00,
2013-10-26 05:26:00,38.5,25.8,30.08,SE,145,1.1,1.1,60,0.00,CLR,,0.00,WeatherDisplay:10.37,2013-10-26 09:26:00,
2013-10-26 05:28:00,38.5,25.8,30.08,WNW,302,10.4,10.4,60,0.00,CLR,,0.00,WeatherDisplay:10.37,2013-10-26 09:28:00,
2013-10-26 05:29:00,38.5,25.8,30.08,SSW,205,5.8,5.8,60,0.00,CLR,,0.00,WeatherDisplay:10.37,2013-10-26 09:29:00,
2013-10-26 05:30:00,38.5,25.8,30.08,East,97,6.9,6.9,60,0.00,CLR,,0.00,WeatherDisplay:10.37,2013-10-26 09:30:00,
2013-10-26 05:31:00,38.5,25.8,30.07,South,171,4.6,4.6,60,0.00,CLR,,0.00,WeatherDisplay:10.37,2013-10-26 09:31:00,
2013-10-26 05:34:00,38.5,25.8,30.08,West,271,11.5,11.5,60,0.00,CLR,,0.00,WeatherDisplay:10.37,2013-10-26 09:34:00,
2013-10-26 05:35:00,38.5,25.8,30.08,SW,234,1.1,0.0,60,0.00,CLR,,0.00,WeatherDisplay:10.37,2013-10-26 09:35:00,
2013-10-26 05:36:00,38.5,25.8,30.08,NW,319,0.0,0.0,60,0.00,CLR,,0.00,WeatherDisplay:10.37,2013-10-26 09:36:00,
2013-10-26 05:37:00,38.3,25.6,30.08,SSW,210,0.0,0.0,60,0.00,CLR,,0.00,WeatherDisplay:10.37,2013-10-26 09:37:00,
2013-10-26 05:39:00,38.3,25.6,30.08,WNW,296,0.0,0.0,60,0.00,CLR,,0.00,WeatherDisplay:10.37,2013-10-26 09:39:00,
2013-10-26 05:40:00,38.3,26.0,30.08,SE,136,1.0,1.0,61,0.00,CLR,,0.00,WeatherDisplay:10.37,2013-10-26 09:40:00,
2013-10-26 05:41:00,38.3,26.0,30.08,SE,143,1.1,1.1,61,0.00,CLR,,0.00,WeatherDisplay:10.37,2013-10-26 09:41:00,
2013-10-26 05:42:00,38.3,26.0,30.07,SSE,168,1.1,0.0,61,0.00,CLR,,0.00,WeatherDisplay:10.37,2013-10-26 09:42:00,
2013-10-26 05:43:00,38.3,26.0,30.07,South,169,0.0,0.0,61,0.00,CLR,,0.00,WeatherDisplay:10.37,2013-10-26 09:43:00,
2013-10-26 05:44:00,38.2,26.3,30.07,South,189,1.1,1.1,62,0.00,CLR,,0.00,WeatherDisplay:10.37,2013-10-26 09:44:00,
2013-10-26 05:45:00,38.2,26.3,30.07,South,189,1.1,1.1,62,0.00,CLR,,0.00,WeatherDisplay:10.37,2013-10-26 09:45:00,
2013-10-26 05:46:00,38.2,26.3,30.07,SSW,196,1.1,0.0,62,0.00,CLR,,0.00,WeatherDisplay:10.37,2013-10-26 09:46:00,
2013-10-26 05:47:00,38.2,26.3,30.07,SSW,196,0.0,0.0,62,0.00,CLR,,0.00,WeatherDisplay:10.37,2013-10-26 09:47:00,
2013-10-26 05:48:00,38.2,25.9,30.07,SW,217,9.2,9.2,61,0.00,CLR,,0.00,WeatherDisplay:10.37,2013-10-26 09:48:00,
2013-10-26 05:50:00,38.2,25.9,30.07,East,85,1.1,0.0,61,0.00,CLR,,0.00,WeatherDisplay:10.37,2013-10-26 09:50:00,
2013-10-26 05:51:00,38.2,25.9,30.07,SE,127,1.1,0.0,61,0.00,CLR,,0.00,WeatherDisplay:10.37,2013-10-26 09:51:00,
2013-10-26 05:52:00,38.2,25.9,30.07,SW,234,1.1,1.1,61,0.00,CLR,,0.00,WeatherDisplay:10.37,2013-10-26 09:52:00,
2013-10-26 05:53:00,38.0,25.7,30.07,SW,215,6.0,6.0,61,0.00,CLR,,0.00,WeatherDisplay:10.37,2013-10-26 09:53:00,
2013-10-26 05:56:00,38.2,25.9,30.07,ESE,121,1.1,1.1,61,0.00,CLR,,0.00,WeatherDisplay:10.37,2013-10-26 09:56:00,
2013-10-26 05:57:00,38.0,25.7,30.07,SSW,193,1.1,1.1,61,0.00,CLR,,0.00,WeatherDisplay:10.37,2013-10-26 09:57:00,
2013-10-26 05:58:00,38.0,25.7,30.07,ESE,119,1.1,0.0,61,0.00,CLR,,0.00,WeatherDisplay:10.37,2013-10-26 09:58:00,
2013-10-26 06:01:00,38.0,25.7,30.07,SSE,152,1.1,1.1,61,0.00,CLR,,0.00,WeatherDisplay:10.37,2013-10-26 10:01:00,
2013-10-26 06:02:00,38.2,25.9,30.07,South,191,1.1,1.1,61,0.00,CLR,,0.00,WeatherDisplay:10.37,2013-10-26 10:02:00,
2013-10-26 06:03:00,38.2,25.9,30.07,SSW,198,1.1,2.1,61,0.00,CLR,,0.00,WeatherDisplay:10.37,2013-10-26 10:03:00,
2013-10-26 06:06:00,38.2,25.9,30.06,South,172,6.9,6.9,61,0.00,CLR,,0.00,WeatherDisplay:10.37,2013-10-26 10:06:00,
2013-10-26 06:07:00,38.2,25.9,30.06,WSW,244,1.1,1.3,61,0.00,CLR,,0.00,WeatherDisplay:10.37,2013-10-26 10:07:00,
2013-10-26 06:08:00,38.2,25.9,30.06,SE,134,6.9,6.9,61,0.00,CLR,,0.00,WeatherDisplay:10.37,2013-10-26 10:08:00,
2013-10-26 06:09:00,38.2,25.9,30.06,SE,144,1.1,1.1,61,0.00,CLR,,0.00,WeatherDisplay:10.37,2013-10-26 10:09:00,
2013-10-26 06:11:00,38.2,25.9,30.06,SSE,151,1.1,1.1,61,0.00,CLR,,0.00,WeatherDisplay:10.37,2013-10-26 10:11:00,
2013-10-26 06:12:00,38.2,25.9,30.06,WSW,239,1.1,1.1,61,0.00,CLR,,0.00,WeatherDisplay:10.37,2013-10-26 10:12:00,
2013-10-26 06:14:00,38.2,25.9,30.06,SE,145,5.0,5.0,61,0.00,CLR,,0.00,WeatherDisplay:10.37,2013-10-26 10:14:00,
2013-10-26 06:16:00,38.2,25.9,30.05,SSE,158,1.1,1.1,61,0.00,CLR,,0.00,WeatherDisplay:10.37,2013-10-26 10:16:00,
2013-10-26 06:17:00,38.2,25.9,30.05,SSE,157,1.1,1.1,61,0.00,CLR,,0.00,WeatherDisplay:10.37,2013-10-26 10:17:00,
2013-10-26 06:18:00,38.2,25.9,30.05,WSW,244,1.1,1.1,61,0.00,CLR,,0.00,WeatherDisplay:10.37,2013-10-26 10:18:00,
2013-10-26 06:19:00,38.2,25.9,30.05,SSW,212,1.1,1.1,61,0.00,CLR,,0.00,WeatherDisplay:10.37,2013-10-26 10:19:00,
2013-10-26 06:21:00,38.0,25.7,30.06,SE,140,1.1,1.1,61,0.00,CLR,,0.00,WeatherDisplay:10.37,2013-10-26 10:21:00,
2013-10-26 06:22:00,38.0,25.7,30.06,ESE,112,1.1,1.1,61,0.00,CLR,,0.00,WeatherDisplay:10.37,2013-10-26 10:22:00,
2013-10-26 06:24:00,38.0,25.7,30.06,South,176,1.1,0.0,61,0.00,CLR,,0.00,WeatherDisplay:10.37,2013-10-26 10:24:00,
2013-10-26 06:27:00,38.0,25.7,30.05,WSW,243,1.1,1.1,61,0.00,CLR,,0.00,WeatherDisplay:10.37,2013-10-26 10:27:00,
2013-10-26 06:28:00,38.0,25.7,30.05,SSW,209,1.1,1.1,61,0.00,CLR,,0.00,WeatherDisplay:10.37,2013-10-26 10:28:00,
2013-10-26 06:29:00,38.0,25.7,30.05,SW,220,1.1,1.1,61,0.00,CLR,,0.00,WeatherDisplay:10.37,2013-10-26 10:29:00,
2013-10-26 06:30:00,38.0,25.7,30.05,SW,220,1.1,1.1,61,0.00,CLR,,0.00,WeatherDisplay:10.37,2013-10-26 10:30:00,
2013-10-26 06:32:00,38.0,25.7,30.05,SW,217,1.1,1.1,61,0.00,CLR,,0.00,WeatherDisplay:10.37,2013-10-26 10:32:00,
2013-10-26 06:33:00,38.0,25.7,30.05,SE,145,2.0,2.0,61,0.00,CLR,,0.00,WeatherDisplay:10.37,2013-10-26 10:33:00,
2013-10-26 06:34:00,38.0,25.7,30.05,SE,133,11.5,11.5,61,0.00,CLR,,0.00,WeatherDisplay:10.37,2013-10-26 10:34:00,
2013-10-26 06:35:00,38.0,25.7,30.05,SE,134,2.3,2.3,61,0.00,CLR,,0.00,WeatherDisplay:10.37,2013-10-26 10:35:00,
2013-10-26 06:36:00,38.0,25.7,30.04,South,189,1.1,1.1,61,0.00,CLR,,0.00,WeatherDisplay:10.37,2013-10-26 10:36:00,
2013-10-26 06:37:00,37.9,25.6,30.04,SSE,164,0.0,0.1,61,0.00,CLR,,0.00,WeatherDisplay:10.37,2013-10-26 10:37:00,
2013-10-26 06:39:00,37.9,25.6,30.04,SSW,193,2.3,2.3,61,0.00,CLR,,0.00,WeatherDisplay:10.37,2013-10-26 10:39:00,
2013-10-26 06:40:00,37.9,25.6,30.04,SSE,158,1.1,1.1,61,0.00,CLR,,0.00,WeatherDisplay:10.37,2013-10-26 10:40:00,
2013-10-26 06:41:00,37.9,25.6,30.04,South,191,1.1,1.1,61,0.00,CLR,,0.00,WeatherDisplay:10.37,2013-10-26 10:41:00,
2013-10-26 06:42:00,37.9,25.6,30.04,SE,144,4.6,0.0,61,0.00,CLR,,0.00,WeatherDisplay:10.37,2013-10-26 10:42:00,
2013-10-26 06:43:00,37.9,25.6,30.04,SE,141,2.3,2.3,61,0.00,CLR,,0.00,WeatherDisplay:10.37,2013-10-26 10:43:00,
2013-10-26 06:44:00,37.9,25.6,30.04,South,191,1.1,1.1,61,0.00,CLR,,0.00,WeatherDisplay:10.37,2013-10-26 10:44:00,
2013-10-26 06:45:00,37.8,25.9,30.04,SE,144,11.5,11.5,62,0.00,CLR,,0.00,WeatherDisplay:10.37,2013-10-26 10:45:00,
2013-10-26 06:46:00,37.8,25.5,30.04,SE,141,8.1,8.1,61,0.00,CLR,,0.00,WeatherDisplay:10.37,2013-10-26 10:46:00,
2013-10-26 06:47:00,37.8,25.5,30.04,SSE,151,6.9,6.9,61,0.00,CLR,,0.00,WeatherDisplay:10.37,2013-10-26 10:47:00,
2013-10-26 06:48:00,37.8,25.5,30.04,SSE,157,1.1,1.1,61,0.00,CLR,,0.00,WeatherDisplay:10.37,2013-10-26 10:48:00,
2013-10-26 06:49:00,37.8,25.5,30.04,SSE,158,1.1,1.1,61,0.00,CLR,,0.00,WeatherDisplay:10.37,2013-10-26 10:49:00,
2013-10-26 06:50:00,37.8,25.9,30.04,SSW,193,8.1,8.1,62,0.00,CLR,,0.00,WeatherDisplay:10.37,2013-10-26 10:50:00,
2013-10-26 06:51:00,37.8,25.9,30.04,South,179,1.1,0.0,62,0.00,CLR,,0.00,WeatherDisplay:10.37,2013-10-26 10:51:00,
2013-10-26 06:52:00,37.8,25.9,30.04,SE,137,1.1,1.1,62,0.00,CLR,,0.00,WeatherDisplay:10.37,2013-10-26 10:52:00,
2013-10-26 06:53:00,37.8,25.9,30.04,West,272,2.0,2.0,62,0.00,CLR,,0.00,WeatherDisplay:10.37,2013-10-26 10:53:00,
2013-10-26 06:55:00,37.6,25.7,30.04,SSE,160,1.1,1.1,62,0.00,CLR,,0.00,WeatherDisplay:10.37,2013-10-26 10:55:00,
2013-10-26 06:57:00,37.6,25.7,30.04,SE,144,1.0,0.0,62,0.00,CLR,,0.00,WeatherDisplay:10.37,2013-10-26 10:57:00,
2013-10-26 06:58:00,37.6,25.7,30.04,SE,144,1.1,1.1,62,0.00,CLR,,0.00,WeatherDisplay:10.37,2013-10-26 10:58:00,
2013-10-26 07:00:00,37.6,25.7,30.04,SSW,202,6.9,6.9,62,0.00,CLR,,0.00,WeatherDisplay:10.37,2013-10-26 11:00:00,
2013-10-26 07:02:00,37.6,25.7,30.04,SSW,203,1.1,1.1,62,0.00,CLR,,0.00,WeatherDisplay:10.37,2013-10-26 11:02:00,
2013-10-26 07:03:00,37.6,25.7,30.04,South,188,1.1,1.1,62,0.00,CLR,,0.00,WeatherDisplay:10.37,2013-10-26 11:03:00,
2013-10-26 07:05:00,37.8,25.9,30.04,SSE,147,7.0,7.0,62,0.00,CLR,,0.00,WeatherDisplay:10.37,2013-10-26 11:05:00,
2013-10-26 07:08:00,37.8,25.5,30.04,SE,128,1.1,1.1,61,0.00,CLR,,0.00,WeatherDisplay:10.37,2013-10-26 11:08:00,
2013-10-26 07:10:00,37.9,25.6,30.04,SE,144,8.1,8.1,61,0.00,CLR,,0.00,WeatherDisplay:10.37,2013-10-26 11:10:00,
2013-10-26 07:11:00,37.9,25.6,30.04,East,95,1.1,1.1,61,0.00,CLR,,0.00,WeatherDisplay:10.37,2013-10-26 11:11:00,
2013-10-26 07:13:00,37.9,25.6,30.04,SE,127,2.3,2.3,61,0.00,CLR,,0.00,WeatherDisplay:10.37,2013-10-26 11:13:00,
2013-10-26 07:14:00,37.9,25.6,30.04,SE,128,1.1,1.1,61,0.00,CLR,,0.00,WeatherDisplay:10.37,2013-10-26 11:14:00,
2013-10-26 07:15:00,37.9,25.6,30.04,SSW,193,1.1,0.0,61,0.00,CLR,,0.00,WeatherDisplay:10.37,2013-10-26 11:15:00,
2013-10-26 07:16:00,37.9,25.6,30.04,SSW,208,0.0,0.1,61,0.00,CLR,,0.00,WeatherDisplay:10.37,2013-10-26 11:16:00,
2013-10-26 07:18:00,37.8,25.5,30.03,SSE,164,8.1,8.1,61,0.00,CLR,,0.00,WeatherDisplay:10.37,2013-10-26 11:18:00,
2013-10-26 07:19:00,37.8,25.5,30.03,SSE,152,1.1,1.1,61,0.00,CLR,,0.00,WeatherDisplay:10.37,2013-10-26 11:19:00,
2013-10-26 07:21:00,37.8,25.5,30.03,SW,230,1.1,1.1,61,0.00,CLR,,0.00,WeatherDisplay:10.37,2013-10-26 11:21:00,
2013-10-26 07:23:00,37.8,25.5,30.03,SSE,162,2.3,2.3,61,0.00,CLR,,0.00,WeatherDisplay:10.37,2013-10-26 11:23:00,
2013-10-26 07:24:00,37.8,25.5,30.03,SSW,193,1.1,1.1,61,0.00,CLR,,0.00,WeatherDisplay:10.37,2013-10-26 11:24:00,
2013-10-26 07:26:00,37.9,25.2,30.03,WSW,250,1.1,0.0,60,0.00,CLR,,0.00,WeatherDisplay:10.37,2013-10-26 11:26:00,
2013-10-26 07:27:00,37.9,25.2,30.03,SSW,212,1.0,1.0,60,0.00,CLR,,0.00,WeatherDisplay:10.37,2013-10-26 11:27:00,
2013-10-26 07:28:00,37.9,25.2,30.03,SE,143,1.1,1.1,60,0.00,CLR,,0.00,WeatherDisplay:10.37,2013-10-26 11:28:00,
2013-10-26 07:29:00,37.9,25.2,30.03,SSE,158,2.3,2.3,60,0.00,CLR,,0.00,WeatherDisplay:10.37,2013-10-26 11:29:00,
2013-10-26 07:30:00,37.9,25.2,30.02,South,184,1.1,1.1,60,0.00,CLR,,0.00,WeatherDisplay:10.37,2013-10-26 11:30:00,
2013-10-26 07:32:00,37.9,25.2,30.02,SSW,212,5.8,5.8,60,0.00,CLR,,0.00,WeatherDisplay:10.37,2013-10-26 11:32:00,
2013-10-26 07:33:00,37.9,25.2,30.02,WNW,291,12.0,12.0,60,0.00,CLR,,0.00,WeatherDisplay:10.37,2013-10-26 11:33:00,
2013-10-26 07:34:00,37.9,25.2,30.02,West,270,11.5,11.5,60,0.00,CLR,,0.00,WeatherDisplay:10.37,2013-10-26 11:34:00,
2013-10-26 07:35:00,37.9,25.2,30.02,ESE,114,11.5,11.5,60,0.00,CLR,,0.00,WeatherDisplay:10.37,2013-10-26 11:35:00,
2013-10-26 07:37:00,37.9,25.2,30.02,South,172,11.5,11.5,60,0.00,CLR,,0.00,WeatherDisplay:10.37,2013-10-26 11:37:00,
2013-10-26 07:39:00,38.0,25.3,30.02,SE,145,2.3,2.3,60,0.00,CLR,,0.00,WeatherDisplay:10.37,2013-10-26 11:39:00,
2013-10-26 07:40:00,38.0,25.3,30.02,SSE,150,8.1,8.1,60,0.00,CLR,,0.00,WeatherDisplay:10.37,2013-10-26 11:40:00,
2013-10-26 07:42:00,38.0,24.9,30.02,South,188,12.7,12.7,59,0.00,CLR,,0.00,WeatherDisplay:10.37,2013-10-26 11:42:00,
2013-10-26 07:43:00,38.0,24.9,30.02,ESE,116,1.1,1.1,59,0.00,CLR,,0.00,WeatherDisplay:10.37,2013-10-26 11:43:00,
2013-10-26 07:44:00,38.2,25.1,30.01,SSE,161,6.9,6.9,59,0.00,CLR,,0.00,WeatherDisplay:10.37,2013-10-26 11:44:00,
2013-10-26 07:45:00,38.2,25.1,30.01,SW,223,3.5,3.5,59,0.00,CLR,,0.00,WeatherDisplay:10.37,2013-10-26 11:45:00,
2013-10-26 07:46:00,38.2,25.1,30.02,SSE,155,1.1,1.1,59,0.00,CLR,,0.00,WeatherDisplay:10.37,2013-10-26 11:46:00,
2013-10-26 07:47:00,38.2,25.1,30.01,SSE,154,8.1,8.1,59,0.00,CLR,,0.00,WeatherDisplay:10.37,2013-10-26 11:47:00,
2013-10-26 07:48:00,38.2,25.1,30.01,SSE,148,6.0,6.0,59,0.00,CLR,,0.00,WeatherDisplay:10.37,2013-10-26 11:48:00,
2013-10-26 07:49:00,38.2,25.1,30.01,SW,232,10.4,10.4,59,0.00,CLR,,0.00,WeatherDisplay:10.37,2013-10-26 11:49:00,
2013-10-26 07:51:00,38.3,25.2,30.01,SW,229,11.5,11.5,59,0.00,CLR,,0.00,WeatherDisplay:10.37,2013-10-26 11:51:00,
2013-10-26 07:52:00,38.3,24.8,30.01,SSE,164,12.7,12.7,58,0.00,CLR,,0.00,WeatherDisplay:10.37,2013-10-26 11:52:00,
2013-10-26 07:53:00,38.3,24.8,30.00,SE,134,5.8,5.8,58,0.00,CLR,,0.00,WeatherDisplay:10.37,2013-10-26 11:53:00,
2013-10-26 07:54:00,38.5,25.0,30.01,SE,138,11.5,11.5,58,0.00,CLR,,0.00,WeatherDisplay:10.37,2013-10-26 11:54:00,
2013-10-26 07:56:00,38.5,24.6,30.00,WSW,258,16.1,16.1,57,0.00,CLR,,0.00,WeatherDisplay:10.37,2013-10-26 11:56:00,
2013-10-26 07:58:00,38.5,25.0,30.00,SE,124,13.8,13.8,58,0.00,CLR,,0.00,WeatherDisplay:10.37,2013-10-26 11:58:00,
2013-10-26 08:00:00,38.6,25.1,30.00,South,172,4.6,4.6,58,0.00,CLR,,0.00,WeatherDisplay:10.37,2013-10-26 12:00:00,
2013-10-26 08:01:00,38.5,25.0,30.00,SSE,151,1.1,1.3,58,0.00,CLR,,0.00,WeatherDisplay:10.37,2013-10-26 12:01:00,
2013-10-26 08:02:00,38.5,25.0,30.00,SSE,162,6.9,6.9,58,0.00,CLR,,0.00,WeatherDisplay:10.37,2013-10-26 12:02:00,
2013-10-26 08:03:00,38.5,25.0,30.00,SSE,161,5.8,5.8,58,0.00,CLR,,0.00,WeatherDisplay:10.37,2013-10-26 12:03:00,
2013-10-26 08:04:00,38.5,25.0,30.00,SSE,162,1.1,1.1,58,0.00,CLR,,0.00,WeatherDisplay:10.37,2013-10-26 12:04:00,
2013-10-26 08:05:00,38.5,25.0,30.00,SSW,212,1.1,1.1,58,0.00,CLR,,0.00,WeatherDisplay:10.37,2013-10-26 12:05:00,
2013-10-26 08:07:00,38.5,25.0,30.00,SSE,157,1.1,1.1,58,0.00,CLR,,0.00,WeatherDisplay:10.37,2013-10-26 12:07:00,
2013-10-26 08:09:00,38.5,25.0,30.00,ESE,112,17.3,17.3,58,0.00,CLR,,0.00,WeatherDisplay:10.37,2013-10-26 12:09:00,
2013-10-26 08:10:00,38.6,24.7,30.00,South,184,17.3,17.3,57,0.00,CLR,,0.00,WeatherDisplay:10.37,2013-10-26 12:10:00,
2013-10-26 08:12:00,38.6,24.7,30.00,SSW,208,16.0,16.0,57,0.00,CLR,,0.00,WeatherDisplay:10.37,2013-10-26 12:12:00,
2013-10-26 08:14:00,38.6,25.1,30.00,SSE,161,11.5,0.0,58,0.00,CLR,,0.00,WeatherDisplay:10.37,2013-10-26 12:14:00,
2013-10-26 08:15:00,38.6,25.1,30.00,SSW,205,11.5,11.5,58,0.00,CLR,,0.00,WeatherDisplay:10.37,2013-10-26 12:15:00,
2013-10-26 08:17:00,38.6,25.1,29.99,SSW,202,5.8,5.8,58,0.00,CLR,,0.00,WeatherDisplay:10.37,2013-10-26 12:17:00,
2013-10-26 08:19:00,38.6,25.1,30.00,SE,138,6.9,6.9,58,0.00,CLR,,0.00,WeatherDisplay:10.37,2013-10-26 12:19:00,
2013-10-26 08:20:00,38.6,25.1,29.99,SSW,210,1.1,1.1,58,0.00,CLR,,0.00,WeatherDisplay:10.37,2013-10-26 12:20:00,
2013-10-26 08:21:00,38.6,25.1,29.99,SE,137,1.1,1.1,58,0.00,CLR,,0.00,WeatherDisplay:10.37,2013-10-26 12:21:00,
2013-10-26 08:22:00,38.6,25.1,29.99,SE,138,4.6,4.6,58,0.00,CLR,,0.00,WeatherDisplay:10.37,2013-10-26 12:22:00,
2013-10-26 08:24:00,38.6,25.1,29.99,East,79,11.5,11.5,58,0.00,CLR,,0.00,WeatherDisplay:10.37,2013-10-26 12:24:00,
2013-10-26 08:25:00,38.6,25.1,29.99,SSW,199,3.5,3.5,58,0.00,CLR,,0.00,WeatherDisplay:10.37,2013-10-26 12:25:00,
2013-10-26 08:26:00,38.6,25.1,29.99,South,188,1.1,1.1,58,0.00,CLR,,0.00,WeatherDisplay:10.37,2013-10-26 12:26:00,
2013-10-26 08:28:00,38.8,25.3,29.99,WSW,253,2.3,2.3,58,0.00,CLR,,0.00,WeatherDisplay:10.37,2013-10-26 12:28:00,
2013-10-26 08:29:00,38.8,25.3,29.99,SSW,196,12.7,12.7,58,0.00,CLR,,0.00,WeatherDisplay:10.37,2013-10-26 12:29:00,
2013-10-26 08:30:00,38.8,25.3,29.99,South,172,11.5,11.5,58,0.00,CLR,,0.00,WeatherDisplay:10.37,2013-10-26 12:30:00,
2013-10-26 08:31:00,38.8,24.9,29.99,SE,131,12.7,12.7,57,0.00,CLR,,0.00,WeatherDisplay:10.37,2013-10-26 12:31:00,
2013-10-26 08:34:00,38.8,25.3,29.99,SW,236,5.8,5.8,58,0.00,CLR,,0.00,WeatherDisplay:10.37,2013-10-26 12:34:00,
2013-10-26 08:35:00,38.8,24.9,29.98,WSW,244,11.5,11.5,57,0.00,CLR,,0.00,WeatherDisplay:10.37,2013-10-26 12:35:00,
2013-10-26 08:36:00,38.8,24.9,29.98,ESE,117,11.5,11.5,57,0.00,CLR,,0.00,WeatherDisplay:10.37,2013-10-26 12:36:00,
2013-10-26 08:39:00,38.9,24.9,29.98,SSE,147,11.5,11.5,57,0.00,CLR,,0.00,WeatherDisplay:10.37,2013-10-26 12:39:00,
2013-10-26 08:40:00,38.9,24.9,29.98,SSE,157,12.7,12.7,57,0.00,CLR,,0.00,WeatherDisplay:10.37,2013-10-26 12:40:00,
2013-10-26 08:41:00,38.9,24.9,29.97,South,169,6.9,6.9,57,0.00,CLR,,0.00,WeatherDisplay:10.37,2013-10-26 12:41:00,
2013-10-26 08:45:00,39.1,25.1,29.98,South,184,2.3,2.3,57,0.00,CLR,,0.00,WeatherDisplay:10.37,2013-10-26 12:45:00,
2013-10-26 08:46:00,39.1,25.1,29.98,SSW,208,8.1,8.1,57,0.00,CLR,,0.00,WeatherDisplay:10.37,2013-10-26 12:46:00,
2013-10-26 08:47:00,39.1,25.1,29.98,SSE,151,8.1,8.1,57,0.00,CLR,,0.00,WeatherDisplay:10.37,2013-10-26 12:47:00,
2013-10-26 08:50:00,39.3,24.9,29.98,SSW,199,3.5,3.5,56,0.00,CLR,,0.00,WeatherDisplay:10.37,2013-10-26 12:50:00,
2013-10-26 08:51:00,39.3,24.9,29.98,SSE,151,2.3,2.3,56,0.00,CLR,,0.00,WeatherDisplay:10.37,2013-10-26 12:51:00,
2013-10-26 08:53:00,39.5,25.1,29.97,SE,138,3.5,3.5,56,0.00,CLR,,0.00,WeatherDisplay:10.37,2013-10-26 12:53:00,
2013-10-26 08:56:00,39.8,25.4,29.98,South,191,8.1,8.1,56,0.00,CLR,,0.00,WeatherDisplay:10.37,2013-10-26 12:56:00,
2013-10-26 08:58:00,39.8,25.4,29.97,South,179,1.1,1.1,56,0.00,CLR,,0.00,WeatherDisplay:10.37,2013-10-26 12:58:00,
2013-10-26 09:01:00,39.9,25.0,29.97,South,175,11.0,11.0,55,0.00,CLR,,0.00,WeatherDisplay:10.37,2013-10-26 13:01:00,
2013-10-26 09:02:00,39.9,25.0,29.97,South,181,12.7,12.7,55,0.00,CLR,,0.00,WeatherDisplay:10.37,2013-10-26 13:02:00,
2013-10-26 09:04:00,39.8,25.4,29.96,SSE,161,10.4,10.4,56,0.00,CLR,,0.00,WeatherDisplay:10.37,2013-10-26 13:04:00,
2013-10-26 09:06:00,39.8,24.9,29.97,SE,127,14.0,14.0,55,0.00,CLR,,0.00,WeatherDisplay:10.37,2013-10-26 13:06:00,
2013-10-26 09:07:00,39.8,24.9,29.97,WSW,237,13.8,13.8,55,0.00,CLR,,0.00,WeatherDisplay:10.37,2013-10-26 13:07:00,
2013-10-26 09:09:00,39.8,24.9,29.96,South,191,1.1,3.7,55,0.00,CLR,,0.00,WeatherDisplay:10.37,2013-10-26 13:09:00,
2013-10-26 09:11:00,39.8,24.9,29.96,ESE,119,2.3,2.3,55,0.00,CLR,,0.00,WeatherDisplay:10.37,2013-10-26 13:11:00,
2013-10-26 09:12:00,39.8,25.4,29.97,SW,233,2.3,2.3,56,0.00,CLR,,0.00,WeatherDisplay:10.37,2013-10-26 13:12:00,
2013-10-26 09:14:00,39.8,24.9,29.97,South,181,1.1,2.0,55,0.00,CLR,,0.00,WeatherDisplay:10.37,2013-10-26 13:14:00,
2013-10-26 09:16:00,39.9,24.6,29.97,SW,220,11.5,11.5,54,0.00,CLR,,0.00,WeatherDisplay:10.37,2013-10-26 13:16:00,
2013-10-26 09:17:00,39.9,25.0,29.97,SSW,192,3.5,3.5,55,0.00,CLR,,0.00,WeatherDisplay:10.37,2013-10-26 13:17:00,
2013-10-26 09:18:00,39.9,25.0,29.97,SW,226,4.6,4.6,55,0.00,CLR,,0.00,WeatherDisplay:10.37,2013-10-26 13:18:00,
2013-10-26 09:19:00,39.9,25.0,29.97,SSW,203,1.1,1.1,55,0.00,CLR,,0.00,WeatherDisplay:10.37,2013-10-26 13:19:00,
2013-10-26 09:21:00,39.9,25.0,29.97,South,188,2.3,2.3,55,0.00,CLR,,0.00,WeatherDisplay:10.37,2013-10-26 13:21:00,
2013-10-26 09:22:00,39.9,25.0,29.97,SW,220,3.0,3.0,55,0.00,CLR,,0.00,WeatherDisplay:10.37,2013-10-26 13:22:00,
2013-10-26 09:23:00,39.9,25.0,29.97,WSW,258,10.4,10.4,55,0.00,CLR,,0.00,WeatherDisplay:10.37,2013-10-26 13:23:00,
2013-10-26 09:24:00,39.9,25.0,29.96,SSE,168,4.6,4.6,55,0.00,CLR,,0.00,WeatherDisplay:10.37,2013-10-26 13:24:00,
2013-10-26 09:26:00,39.9,25.0,29.97,ESE,116,1.1,1.1,55,0.00,CLR,,0.00,WeatherDisplay:10.37,2013-10-26 13:26:00,
2013-10-26 09:27:00,39.9,24.6,29.97,South,171,6.9,6.9,54,0.00,CLR,,0.00,WeatherDisplay:10.37,2013-10-26 13:27:00,
2013-10-26 09:28:00,39.9,24.6,29.97,SW,219,11.5,11.5,54,0.00,CLR,,0.00,WeatherDisplay:10.37,2013-10-26 13:28:00,
2013-10-26 09:29:00,40.1,25.2,29.97,SSW,206,11.5,11.5,55,0.00,CLR,,0.00,WeatherDisplay:10.37,2013-10-26 13:29:00,
2013-10-26 09:30:00,40.1,25.2,29.97,ENE,58,8.1,8.1,55,0.00,CLR,,0.00,WeatherDisplay:10.37,2013-10-26 13:30:00,
2013-10-26 09:31:00,40.1,24.8,29.97,SSE,154,1.1,1.1,54,0.00,CLR,,0.00,WeatherDisplay:10.37,2013-10-26 13:31:00,
2013-10-26 09:32:00,40.1,24.8,29.97,SE,137,1.1,1.1,54,0.00,CLR,,0.00,WeatherDisplay:10.37,2013-10-26 13:32:00,
2013-10-26 09:34:00,40.1,24.8,29.97,ESE,119,2.3,2.3,54,0.00,CLR,,0.00,WeatherDisplay:10.37,2013-10-26 13:34:00,
2013-10-26 09:35:00,40.1,25.2,29.97,SSW,199,1.1,1.1,55,0.00,CLR,,0.00,WeatherDisplay:10.37,2013-10-26 13:35:00,
2013-10-26 09:37:00,40.1,25.2,29.96,SSE,150,2.3,2.3,55,0.00,CLR,,0.00,WeatherDisplay:10.37,2013-10-26 13:37:00,
2013-10-26 09:40:00,40.2,24.9,29.97,SSE,152,0.0,0.0,54,0.00,CLR,,0.00,WeatherDisplay:10.37,2013-10-26 13:40:00,
2013-10-26 09:42:00,40.2,25.3,29.97,SSE,155,8.1,8.1,55,0.00,CLR,,0.00,WeatherDisplay:10.37,2013-10-26 13:42:00,
2013-10-26 09:43:00,40.2,24.9,29.96,SSW,193,17.3,17.3,54,0.00,CLR,,0.00,WeatherDisplay:10.37,2013-10-26 13:43:00,
2013-10-26 09:45:00,40.3,25.0,29.96,SW,232,3.5,3.5,54,0.00,CLR,,0.00,WeatherDisplay:10.37,2013-10-26 13:45:00,
2013-10-26 09:46:00,40.3,25.0,29.96,SSW,199,1.1,1.1,54,0.00,CLR,,0.00,WeatherDisplay:10.37,2013-10-26 13:46:00,
2013-10-26 09:47:00,40.3,25.0,29.97,WSW,246,11.5,11.5,54,0.00,CLR,,0.00,WeatherDisplay:10.37,2013-10-26 13:47:00,
2013-10-26 09:48:00,40.3,25.0,29.96,WSW,243,18.4,18.4,54,0.00,CLR,,0.00,WeatherDisplay:10.37,2013-10-26 13:48:00,
2013-10-26 09:50:00,40.3,25.4,29.96,SW,233,2.3,2.3,55,0.00,CLR,,0.00,WeatherDisplay:10.37,2013-10-26 13:50:00,
2013-10-26 09:51:00,40.3,25.0,29.96,SSE,154,11.5,11.5,54,0.00,CLR,,0.00,WeatherDisplay:10.37,2013-10-26 13:51:00,
2013-10-26 09:52:00,40.3,25.0,29.96,SE,134,2.0,2.0,54,0.00,CLR,,0.00,WeatherDisplay:10.37,2013-10-26 13:52:00,
2013-10-26 09:53:00,40.3,25.0,29.96,WNW,284,12.7,12.7,54,0.00,CLR,,0.00,WeatherDisplay:10.37,2013-10-26 13:53:00,
2013-10-26 09:55:00,40.5,25.1,29.95,South,169,11.5,11.5,54,0.00,CLR,,0.00,WeatherDisplay:10.37,2013-10-26 13:55:00,
2013-10-26 09:56:00,40.5,25.1,29.95,SSE,147,2.0,2.0,54,0.00,CLR,,0.00,WeatherDisplay:10.37,2013-10-26 13:56:00,
2013-10-26 09:58:00,40.5,25.1,29.95,SW,230,2.3,2.3,54,0.00,CLR,,0.00,WeatherDisplay:10.37,2013-10-26 13:58:00,
2013-10-26 09:59:00,40.6,25.2,29.96,SE,137,2.3,2.3,54,0.00,CLR,,0.00,WeatherDisplay:10.37,2013-10-26 13:59:00,
2013-10-26 10:00:00,40.6,25.2,29.96,South,175,1.1,0.0,54,0.00,CLR,,0.00,WeatherDisplay:10.37,2013-10-26 14:00:00,
2013-10-26 10:01:00,40.6,25.2,29.96,South,175,0.0,0.0,54,0.00,CLR,,0.00,WeatherDisplay:10.37,2013-10-26 14:01:00,
2013-10-26 10:02:00,40.6,25.2,29.95,ESE,120,2.3,2.3,54,0.00,CLR,,0.00,WeatherDisplay:10.37,2013-10-26 14:02:00,
2013-10-26 10:03:00,40.6,25.2,29.96,South,191,8.1,8.1,54,0.00,CLR,,0.00,WeatherDisplay:10.37,2013-10-26 14:03:00,
2013-10-26 10:04:00,40.8,25.0,29.96,South,188,6.9,6.9,53,0.00,CLR,,0.00,WeatherDisplay:10.37,2013-10-26 14:04:00,
2013-10-26 10:06:00,40.8,25.4,29.95,SSE,167,3.5,3.5,54,0.00,CLR,,0.00,WeatherDisplay:10.37,2013-10-26 14:06:00,
2013-10-26 10:07:00,40.8,25.4,29.96,SW,219,2.3,2.3,54,0.00,CLR,,0.00,WeatherDisplay:10.37,2013-10-26 14:07:00,
2013-10-26 10:08:00,40.8,25.4,29.95,South,174,9.2,9.2,54,0.00,CLR,,0.00,WeatherDisplay:10.37,2013-10-26 14:08:00,
2013-10-26 10:09:00,40.9,25.1,29.95,South,178,1.1,1.1,53,0.00,CLR,,0.00,WeatherDisplay:10.37,2013-10-26 14:09:00,
2013-10-26 10:11:00,40.9,25.5,29.95,SE,141,1.1,1.1,54,0.00,CLR,,0.00,WeatherDisplay:10.37,2013-10-26 14:11:00,
2013-10-26 10:12:00,40.9,25.5,29.95,SSE,150,3.0,3.0,54,0.00,CLR,,0.00,WeatherDisplay:10.37,2013-10-26 14:12:00,
2013-10-26 10:13:00,40.9,25.5,29.95,SW,216,3.5,3.5,54,0.00,CLR,,0.00,WeatherDisplay:10.37,2013-10-26 14:13:00,
2013-10-26 10:14:00,40.9,25.5,29.95,SSE,168,3.5,3.5,54,0.00,CLR,,0.00,WeatherDisplay:10.37,2013-10-26 14:14:00,
2013-10-26 10:16:00,40.9,25.5,29.95,SE,126,13.8,13.8,54,0.00,CLR,,0.00,WeatherDisplay:10.37,2013-10-26 14:16:00,
2013-10-26 10:17:00,40.9,25.5,29.95,WSW,241,5.8,5.8,54,0.00,CLR,,0.00,WeatherDisplay:10.37,2013-10-26 14:17:00,
2013-10-26 10:18:00,41.1,25.7,29.95,West,272,4.6,4.6,54,0.00,CLR,,0.00,WeatherDisplay:10.37,2013-10-26 14:18:00,
2013-10-26 10:19:00,41.1,25.7,29.95,SSE,148,2.3,2.3,54,0.00,CLR,,0.00,WeatherDisplay:10.37,2013-10-26 14:19:00,
2013-10-26 10:22:00,41.2,25.8,29.95,SSW,196,3.5,3.5,54,0.00,CLR,,0.00,WeatherDisplay:10.37,2013-10-26 14:22:00,
2013-10-26 10:23:00,41.2,25.8,29.95,SE,133,2.0,2.0,54,0.00,CLR,,0.00,WeatherDisplay:10.37,2013-10-26 14:23:00,
2013-10-26 10:24:00,41.3,25.9,29.95,SSE,168,2.3,2.3,54,0.00,CLR,,0.00,WeatherDisplay:10.37,2013-10-26 14:24:00,
2013-10-26 10:27:00,41.3,25.9,29.94,SSE,165,11.5,11.5,54,0.00,CLR,,0.00,WeatherDisplay:10.37,2013-10-26 14:27:00,
2013-10-26 10:28:00,41.5,25.6,29.94,WSW,251,2.3,2.3,53,0.00,CLR,,0.00,WeatherDisplay:10.37,2013-10-26 14:28:00,
2013-10-26 10:29:00,41.5,25.6,29.94,SSE,167,3.5,3.5,53,0.00,CLR,,0.00,WeatherDisplay:10.37,2013-10-26 14:29:00,
2013-10-26 10:30:00,41.5,26.1,29.94,SSW,193,5.8,5.8,54,0.00,CLR,,0.00,WeatherDisplay:10.37,2013-10-26 14:30:00,
2013-10-26 10:32:00,41.3,25.9,29.94,ESE,114,6.9,6.9,54,0.00,CLR,,0.00,WeatherDisplay:10.37,2013-10-26 14:32:00,
2013-10-26 10:33:00,41.3,25.9,29.94,ESE,120,2.3,2.3,54,0.00,CLR,,0.00,WeatherDisplay:10.37,2013-10-26 14:33:00,
2013-10-26 10:34:00,41.3,25.9,29.94,WSW,250,1.1,1.1,54,0.00,CLR,,0.00,WeatherDisplay:10.37,2013-10-26 14:34:00,
2013-10-26 10:35:00,41.3,25.9,29.94,WSW,240,12.0,12.0,54,0.00,CLR,,0.00,WeatherDisplay:10.37,2013-10-26 14:35:00,
2013-10-26 10:37:00,41.3,25.9,29.93,SE,141,1.1,1.1,54,0.00,CLR,,0.00,WeatherDisplay:10.37,2013-10-26 14:37:00,
2013-10-26 10:39:00,41.2,25.8,29.93,SW,227,16.1,16.1,54,0.00,CLR,,0.00,WeatherDisplay:10.37,2013-10-26 14:39:00,
2013-10-26 10:40:00,41.2,25.3,29.93,SSW,208,11.5,11.5,53,0.00,CLR,,0.00,WeatherDisplay:10.37,2013-10-26 14:40:00,
2013-10-26 10:42:00,41.2,25.8,29.93,SW,226,12.7,12.7,54,0.00,CLR,,0.00,WeatherDisplay:10.37,2013-10-26 14:42:00,
2013-10-26 10:44:00,41.2,25.8,29.93,SW,226,1.1,1.1,54,0.00,CLR,,0.00,WeatherDisplay:10.37,2013-10-26 14:44:00,
2013-10-26 10:45:00,41.2,25.8,29.93,SW,219,1.1,1.1,54,0.00,CLR,,0.00,WeatherDisplay:10.37,2013-10-26 14:45:00,
2013-10-26 10:48:00,41.3,25.9,29.93,WSW,248,3.0,3.0,54,0.00,CLR,,0.00,WeatherDisplay:10.37,2013-10-26 14:48:00,
2013-10-26 10:49:00,41.3,25.9,29.93,WSW,251,10.4,10.4,54,0.00,CLR,,0.00,WeatherDisplay:10.37,2013-10-26 14:49:00,
2013-10-26 10:50:00,41.3,25.4,29.93,SW,223,2.3,2.3,53,0.00,CLR,,0.00,WeatherDisplay:10.37,2013-10-26 14:50:00,
2013-10-26 10:51:00,41.3,25.4,29.93,South,181,1.1,1.1,53,0.00,CLR,,0.00,WeatherDisplay:10.37,2013-10-26 14:51:00,
2013-10-26 10:53:00,41.5,26.1,29.93,East,96,11.5,11.5,54,0.00,CLR,,0.00,WeatherDisplay:10.37,2013-10-26 14:53:00,
2013-10-26 10:54:00,41.5,25.6,29.93,ESE,117,3.5,3.5,53,0.00,CLR,,0.00,WeatherDisplay:10.37,2013-10-26 14:54:00,
2013-10-26 10:55:00,41.5,25.6,29.92,SW,215,11.5,11.5,53,0.00,CLR,,0.00,WeatherDisplay:10.37,2013-10-26 14:55:00,
2013-10-26 10:56:00,41.5,25.6,29.93,WNW,282,3.5,3.5,53,0.00,CLR,,0.00,WeatherDisplay:10.37,2013-10-26 14:56:00,
2013-10-26 10:58:00,41.6,25.3,29.92,SW,216,4.6,4.6,52,0.00,CLR,,0.00,WeatherDisplay:10.37,2013-10-26 14:58:00,
2013-10-26 10:59:00,41.6,25.3,29.92,East,100,6.9,6.9,52,0.00,CLR,,0.00,WeatherDisplay:10.37,2013-10-26 14:59:00,
2013-10-26 11:01:00,41.6,25.3,29.92,South,184,11.5,11.5,52,0.00,CLR,,0.00,WeatherDisplay:10.37,2013-10-26 15:01:00,
2013-10-26 11:03:00,41.6,25.3,29.93,SSE,148,8.1,8.1,52,0.00,CLR,,0.00,WeatherDisplay:10.37,2013-10-26 15:03:00,
2013-10-26 11:04:00,41.6,25.3,29.93,WSW,244,5.0,5.0,52,0.00,CLR,,0.00,WeatherDisplay:10.37,2013-10-26 15:04:00,
2013-10-26 11:05:00,41.6,25.3,29.93,SSW,202,7.0,7.0,52,0.00,CLR,,0.00,WeatherDisplay:10.37,2013-10-26 15:05:00,
2013-10-26 11:06:00,41.6,25.3,29.92,South,175,8.1,8.1,52,0.00,CLR,,0.00,WeatherDisplay:10.37,2013-10-26 15:06:00,
2013-10-26 11:08:00,41.6,25.3,29.93,SW,219,8.1,8.1,52,0.00,CLR,,0.00,WeatherDisplay:10.37,2013-10-26 15:08:00,
2013-10-26 11:09:00,41.6,25.3,29.93,SW,223,12.7,12.7,52,0.00,CLR,,0.00,WeatherDisplay:10.37,2013-10-26 15:09:00,
2013-10-26 11:10:00,41.6,25.3,29.93,South,182,2.3,2.3,52,0.00,CLR,,0.00,WeatherDisplay:10.37,2013-10-26 15:10:00,
2013-10-26 11:11:00,41.6,25.3,29.93,South,181,12.7,12.7,52,0.00,CLR,,0.00,WeatherDisplay:10.37,2013-10-26 15:11:00,
2013-10-26 11:12:00,41.6,25.3,29.93,SW,224,16.1,16.1,52,0.00,CLR,,0.00,WeatherDisplay:10.37,2013-10-26 15:12:00,
2013-10-26 11:13:00,41.6,25.3,29.93,SSE,168,5.8,5.8,52,0.00,CLR,,0.00,WeatherDisplay:10.37,2013-10-26 15:13:00,
2013-10-26 11:15:00,41.6,25.3,29.92,WNW,282,10.4,10.4,52,0.00,CLR,,0.00,WeatherDisplay:10.37,2013-10-26 15:15:00,
2013-10-26 11:16:00,41.6,25.3,29.93,SW,215,15.0,15.0,52,0.00,CLR,,0.00,WeatherDisplay:10.37,2013-10-26 15:16:00,
2013-10-26 11:17:00,41.8,25.4,29.93,NW,305,9.2,9.2,52,0.00,CLR,,0.00,WeatherDisplay:10.37,2013-10-26 15:17:00,
2013-10-26 11:18:00,41.8,25.4,29.94,SSE,158,0.0,0.3,52,0.00,CLR,,0.00,WeatherDisplay:10.37,2013-10-26 15:18:00,
2013-10-26 11:21:00,41.6,25.3,29.92,SSE,151,2.3,2.3,52,0.00,CLR,,0.00,WeatherDisplay:10.37,2013-10-26 15:21:00,
2013-10-26 11:22:00,41.6,25.3,29.92,SW,223,8.1,8.1,52,0.00,CLR,,0.00,WeatherDisplay:10.37,2013-10-26 15:22:00,
2013-10-26 11:23:00,41.6,25.3,29.93,South,184,8.1,8.1,52,0.00,CLR,,0.00,WeatherDisplay:10.37,2013-10-26 15:23:00,
2013-10-26 11:26:00,41.6,25.7,29.93,SE,133,2.3,2.3,53,0.00,CLR,,0.00,WeatherDisplay:10.37,2013-10-26 15:26:00,
2013-10-26 11:28:00,41.6,25.7,29.93,SSW,210,2.3,2.3,53,0.00,CLR,,0.00,WeatherDisplay:10.37,2013-10-26 15:28:00,
2013-10-26 11:31:00,41.6,25.7,29.92,NNW,346,1.1,1.2,53,0.00,CLR,,0.00,WeatherDisplay:10.37,2013-10-26 15:31:00,
2013-10-26 11:33:00,41.6,25.3,29.92,SSE,157,10.4,10.4,52,0.00,CLR,,0.00,WeatherDisplay:10.37,2013-10-26 15:33:00,
2013-10-26 11:34:00,41.8,25.4,29.92,South,171,2.3,2.3,52,0.00,CLR,,0.00,WeatherDisplay:10.37,2013-10-26 15:34:00,
2013-10-26 11:36:00,41.8,25.9,29.91,SSW,206,1.1,1.1,53,0.00,CLR,,0.00,WeatherDisplay:10.37,2013-10-26 15:36:00,
2013-10-26 11:38:00,41.8,25.4,29.91,SE,138,2.3,2.3,52,0.00,CLR,,0.00,WeatherDisplay:10.37,2013-10-26 15:38:00,
2013-10-26 11:39:00,41.8,25.4,29.91,SE,137,8.1,8.1,52,0.00,CLR,,0.00,WeatherDisplay:10.37,2013-10-26 15:39:00,
2013-10-26 11:41:00,41.8,25.4,29.91,SW,229,8.0,8.0,52,0.00,CLR,,0.00,WeatherDisplay:10.37,2013-10-26 15:41:00,
2013-10-26 11:42:00,41.8,25.9,29.91,SSW,205,6.9,6.9,53,0.00,CLR,,0.00,WeatherDisplay:10.37,2013-10-26 15:42:00,
2013-10-26 11:44:00,41.8,25.4,29.91,South,171,10.4,10.4,52,0.00,CLR,,0.00,WeatherDisplay:10.37,2013-10-26 15:44:00,
2013-10-26 11:46:00,41.8,25.4,29.91,WSW,244,13.0,13.0,52,0.00,CLR,,0.00,WeatherDisplay:10.37,2013-10-26 15:46:00,
2013-10-26 11:47:00,41.8,25.4,29.91,SSE,157,12.7,12.7,52,0.00,CLR,,0.00,WeatherDisplay:10.37,2013-10-26 15:47:00,
2013-10-26 11:49:00,41.8,25.4,29.90,South,181,2.3,2.3,52,0.00,CLR,,0.00,WeatherDisplay:10.37,2013-10-26 15:49:00,
2013-10-26 11:51:00,41.8,25.9,29.91,West,281,6.9,6.9,53,0.00,CLR,,0.00,WeatherDisplay:10.37,2013-10-26 15:51:00,
2013-10-26 11:53:00,41.8,25.9,29.91,South,174,8.1,8.1,53,0.00,CLR,,0.00,WeatherDisplay:10.37,2013-10-26 15:53:00,
2013-10-26 11:54:00,41.8,25.9,29.90,SSE,165,1.1,1.1,53,0.00,CLR,,0.00,WeatherDisplay:10.37,2013-10-26 15:54:00,
2013-10-26 11:55:00,41.8,25.9,29.90,SSE,162,6.9,6.9,53,0.00,CLR,,0.00,WeatherDisplay:10.37,2013-10-26 15:55:00,
2013-10-26 11:57:00,41.8,25.9,29.89,South,186,1.1,1.1,53,0.00,CLR,,0.00,WeatherDisplay:10.37,2013-10-26 15:57:00,
2013-10-26 11:58:00,41.8,25.9,29.90,SSW,198,2.3,2.3,53,0.00,CLR,,0.00,WeatherDisplay:10.37,2013-10-26 15:58:00,
2013-10-26 11:59:00,41.9,26.0,29.90,WNW,302,2.3,2.3,53,0.00,CLR,,0.00,WeatherDisplay:10.37,2013-10-26 15:59:00,
2013-10-26 12:00:00,41.9,25.5,29.90,WSW,257,17.3,17.3,52,0.00,CLR,,0.00,WeatherDisplay:10.37,2013-10-26 16:00:00,
2013-10-26 12:02:00,42.1,25.7,29.89,South,191,8.1,8.1,52,0.00,CLR,,0.00,WeatherDisplay:10.37,2013-10-26 16:02:00,
2013-10-26 12:03:00,42.1,25.7,29.89,West,267,3.5,3.5,52,0.00,CLR,,0.00,WeatherDisplay:10.37,2013-10-26 16:03:00,
2013-10-26 12:04:00,42.2,25.8,29.90,ESE,116,1.1,1.1,52,0.00,CLR,,0.00,WeatherDisplay:10.37,2013-10-26 16:04:00,
2013-10-26 12:05:00,42.2,26.3,29.90,West,267,3.5,3.5,53,0.00,CLR,,0.00,WeatherDisplay:10.37,2013-10-26 16:05:00,
2013-10-26 12:06:00,42.3,25.9,29.90,WSW,253,3.5,3.5,52,0.00,CLR,,0.00,WeatherDisplay:10.37,2013-10-26 16:06:00,
2013-10-26 12:07:00,42.3,25.9,29.90,SSW,196,5.8,5.8,52,0.00,CLR,,0.00,WeatherDisplay:10.37,2013-10-26 16:07:00,
2013-10-26 12:08:00,42.3,25.9,29.89,SSE,157,6.0,6.0,52,0.00,CLR,,0.00,WeatherDisplay:10.37,2013-10-26 16:08:00,
2013-10-26 12:10:00,42.5,26.1,29.87,SE,145,22.0,22.0,52,0.00,CLR,,0.00,WeatherDisplay:10.37,2013-10-26 16:10:00,
2013-10-26 12:11:00,42.5,26.1,29.88,SSE,168,21.9,21.9,52,0.00,CLR,,0.00,WeatherDisplay:10.37,2013-10-26 16:11:00,
2013-10-26 12:12:00,42.6,25.7,29.88,SSE,165,17.3,17.3,51,0.00,CLR,,0.00,WeatherDisplay:10.37,2013-10-26 16:12:00,
2013-10-26 12:13:00,42.6,25.7,29.89,SSE,168,1.1,1.6,51,0.00,CLR,,0.00,WeatherDisplay:10.37,2013-10-26 16:13:00,
2013-10-26 12:15:00,42.8,25.9,29.90,South,184,11.5,11.5,51,0.00,CLR,,0.00,WeatherDisplay:10.37,2013-10-26 16:15:00,
2013-10-26 12:16:00,42.8,25.9,29.89,SSW,205,11.5,11.5,51,0.00,CLR,,0.00,WeatherDisplay:10.37,2013-10-26 16:16:00,
2013-10-26 12:17:00,42.8,25.9,29.89,SSW,203,11.5,11.5,51,0.00,CLR,,0.00,WeatherDisplay:10.37,2013-10-26 16:17:00,
2013-10-26 12:18:00,42.8,25.9,29.90,South,179,8.1,8.1,51,0.00,CLR,,0.00,WeatherDisplay:10.37,2013-10-26 16:18:00,
2013-10-26 12:20:00,42.8,25.9,29.89,SSW,196,11.5,11.5,51,0.00,CLR,,0.00,WeatherDisplay:10.37,2013-10-26 16:20:00,
2013-10-26 12:21:00,42.8,25.9,29.89,SE,133,2.0,2.0,51,0.00,CLR,,0.00,WeatherDisplay:10.37,2013-10-26 16:21:00,
2013-10-26 12:22:00,42.8,25.9,29.89,SSE,161,10.4,10.4,51,0.00,CLR,,0.00,WeatherDisplay:10.37,2013-10-26 16:22:00,
2013-10-26 12:23:00,42.8,25.9,29.90,SSE,160,5.8,5.8,51,0.00,CLR,,0.00,WeatherDisplay:10.37,2013-10-26 16:23:00,
2013-10-26 12:25:00,42.9,26.0,29.88,SSE,157,2.3,2.3,51,0.00,CLR,,0.00,WeatherDisplay:10.37,2013-10-26 16:25:00,
2013-10-26 12:26:00,42.9,26.0,29.88,SSE,158,3.5,3.5,51,0.00,CLR,,0.00,WeatherDisplay:10.37,2013-10-26 16:26:00,
2013-10-26 12:27:00,42.9,25.5,29.90,East,85,3.5,3.5,50,0.00,CLR,,0.00,WeatherDisplay:10.37,2013-10-26 16:27:00,
2013-10-26 12:28:00,42.9,25.5,29.90,SE,134,3.5,3.5,50,0.00,CLR,,0.00,WeatherDisplay:10.37,2013-10-26 16:28:00,
2013-10-26 12:29:00,42.9,26.0,29.90,North,0,1.1,1.1,51,0.00,CLR,,0.00,WeatherDisplay:10.37,2013-10-26 16:29:00,
2013-10-26 12:31:00,43.1,25.7,29.91,SW,230,1.1,1.1,50,0.00,CLR,,0.00,WeatherDisplay:10.37,2013-10-26 16:31:00,
2013-10-26 12:32:00,43.1,25.7,29.89,South,176,13.8,13.8,50,0.00,CLR,,0.00,WeatherDisplay:10.37,2013-10-26 16:32:00,
2013-10-26 12:33:00,43.1,25.7,29.89,SSE,158,16.1,16.1,50,0.00,CLR,,0.00,WeatherDisplay:10.37,2013-10-26 16:33:00,
2013-10-26 12:34:00,43.1,25.7,29.89,South,179,6.9,6.9,50,0.00,CLR,,0.00,WeatherDisplay:10.37,2013-10-26 16:34:00,
2013-10-26 12:36:00,43.1,26.2,29.89,SW,226,1.1,1.1,51,0.00,CLR,,0.00,WeatherDisplay:10.37,2013-10-26 16:36:00,
2013-10-26 12:37:00,43.1,26.2,29.90,West,261,3.5,3.5,51,0.00,CLR,,0.00,WeatherDisplay:10.37,2013-10-26 16:37:00,
2013-10-26 12:38:00,43.1,26.2,29.90,South,191,3.5,3.5,51,0.00,CLR,,0.00,WeatherDisplay:10.37,2013-10-26 16:38:00,
2013-10-26 12:39:00,43.1,26.2,29.90,SSW,192,1.1,0.0,51,0.00,CLR,,0.00,WeatherDisplay:10.37,2013-10-26 16:39:00,
2013-10-26 12:41:00,43.1,26.2,29.89,SSE,164,4.6,4.6,51,0.00,CLR,,0.00,WeatherDisplay:10.37,2013-10-26 16:41:00,
2013-10-26 12:42:00,43.1,26.2,29.90,West,281,17.0,17.0,51,0.00,CLR,,0.00,WeatherDisplay:10.37,2013-10-26 16:42:00,
2013-10-26 12:43:00,43.1,26.2,29.90,WSW,254,17.3,17.3,51,0.00,CLR,,0.00,WeatherDisplay:10.37,2013-10-26 16:43:00,
2013-10-26 12:44:00,43.1,25.7,29.90,SSW,213,12.7,12.7,50,0.00,CLR,,0.00,WeatherDisplay:10.37,2013-10-26 16:44:00,
2013-10-26 12:46:00,43.1,26.2,29.89,ESE,117,1.1,1.1,51,0.00,CLR,,0.00,WeatherDisplay:10.37,2013-10-26 16:46:00,
2013-10-26 12:47:00,43.1,26.2,29.89,SSW,206,3.5,3.5,51,0.00,CLR,,0.00,WeatherDisplay:10.37,2013-10-26 16:47:00,
2013-10-26 12:48:00,42.9,26.0,29.89,SSE,150,3.5,3.5,51,0.00,CLR,,0.00,WeatherDisplay:10.37,2013-10-26 16:48:00,
2013-10-26 12:49:00,42.9,26.0,29.89,SSE,148,10.4,10.4,51,0.00,CLR,,0.00,WeatherDisplay:10.37,2013-10-26 16:49:00,
2013-10-26 12:50:00,42.9,26.0,29.88,WSW,240,2.3,2.3,51,0.00,CLR,,0.00,WeatherDisplay:10.37,2013-10-26 16:50:00,
2013-10-26 12:51:00,42.9,26.0,29.88,SSW,192,10.4,10.4,51,0.00,CLR,,0.00,WeatherDisplay:10.37,2013-10-26 16:51:00,
2013-10-26 12:52:00,42.9,26.0,29.88,SSW,192,10.4,10.4,51,0.00,CLR,,0.00,WeatherDisplay:10.37,2013-10-26 16:52:00,
2013-10-26 12:53:00,42.9,26.5,29.89,SSE,155,3.0,3.0,52,0.00,CLR,,0.00,WeatherDisplay:10.37,2013-10-26 16:53:00,
2013-10-26 12:55:00,42.9,26.5,29.89,SSE,155,5.8,5.8,52,0.00,CLR,,0.00,WeatherDisplay:10.37,2013-10-26 16:55:00,
2013-10-26 12:56:00,42.9,26.0,29.89,North,359,1.1,1.1,51,0.00,CLR,,0.00,WeatherDisplay:10.37,2013-10-26 16:56:00,
2013-10-26 12:57:00,42.9,26.5,29.89,SSE,148,16.1,16.1,52,0.00,CLR,,0.00,WeatherDisplay:10.37,2013-10-26 16:57:00,
2013-10-26 12:58:00,42.9,26.5,29.88,WSW,243,3.5,3.5,52,0.00,CLR,,0.00,WeatherDisplay:10.37,2013-10-26 16:58:00,
2013-10-26 12:59:00,42.9,26.0,29.88,SE,130,3.5,3.5,51,0.00,CLR,,0.00,WeatherDisplay:10.37,2013-10-26 16:59:00,
2013-10-26 13:00:00,42.9,26.0,29.88,South,176,6.9,6.9,51,0.00,CLR,,0.00,WeatherDisplay:10.37,2013-10-26 17:00:00,
2013-10-26 13:01:00,42.9,26.5,29.88,WSW,257,1.1,1.1,52,0.00,CLR,,0.00,WeatherDisplay:10.37,2013-10-26 17:01:00,
2013-10-26 13:02:00,42.9,26.5,29.88,ESE,109,1.1,1.1,52,0.00,CLR,,0.00,WeatherDisplay:10.37,2013-10-26 17:02:00,
2013-10-26 13:03:00,42.9,26.5,29.88,SSW,195,1.1,0.0,52,0.00,CLR,,0.00,WeatherDisplay:10.37,2013-10-26 17:03:00,
2013-10-26 13:04:00,43.1,26.7,29.88,South,175,1.1,1.1,52,0.00,CLR,,0.00,WeatherDisplay:10.37,2013-10-26 17:04:00,
2013-10-26 13:05:00,43.1,26.7,29.88,East,89,3.5,3.5,52,0.00,CLR,,0.00,WeatherDisplay:10.37,2013-10-26 17:05:00,
2013-10-26 13:07:00,43.1,26.2,29.88,WNW,299,1.1,0.0,51,0.00,CLR,,0.00,WeatherDisplay:10.37,2013-10-26 17:07:00,
2013-10-26 13:08:00,43.1,26.7,29.89,South,169,0.0,0.0,52,0.00,CLR,,0.00,WeatherDisplay:10.37,2013-10-26 17:08:00,
2013-10-26 13:09:00,43.1,26.2,29.89,SSE,155,11.5,11.5,51,0.00,CLR,,0.00,WeatherDisplay:10.37,2013-10-26 17:09:00,
2013-10-26 13:12:00,43.2,26.3,29.88,South,172,20.7,20.7,51,0.00,CLR,,0.00,WeatherDisplay:10.37,2013-10-26 17:12:00,
2013-10-26 13:13:00,43.2,26.3,29.87,SSE,164,5.8,5.8,51,0.00,CLR,,0.00,WeatherDisplay:10.37,2013-10-26 17:13:00,
2013-10-26 13:14:00,43.2,26.3,29.88,NW,305,8.1,8.1,51,0.00,CLR,,0.00,WeatherDisplay:10.37,2013-10-26 17:14:00,
2013-10-26 13:17:00,43.2,26.3,29.89,SW,234,4.6,4.6,51,0.00,CLR,,0.00,WeatherDisplay:10.37,2013-10-26 17:17:00,
2013-10-26 13:18:00,43.3,26.4,29.89,West,270,3.0,3.0,51,0.00,CLR,,0.00,WeatherDisplay:10.37,2013-10-26 17:18:00,
2013-10-26 13:20:00,43.3,26.4,29.88,SSW,192,4.6,4.6,51,0.00,CLR,,0.00,WeatherDisplay:10.37,2013-10-26 17:20:00,
2013-10-26 13:22:00,43.3,26.4,29.88,SW,233,4.6,4.6,51,0.00,CLR,,0.00,WeatherDisplay:10.37,2013-10-26 17:22:00,
2013-10-26 13:23:00,43.3,26.4,29.88,SW,220,2.3,2.3,51,0.00,CLR,,0.00,WeatherDisplay:10.37,2013-10-26 17:23:00,
2013-10-26 13:25:00,43.3,26.4,29.89,WSW,247,19.6,19.6,51,0.00,CLR,,0.00,WeatherDisplay:10.37,2013-10-26 17:25:00,
2013-10-26 13:27:00,43.3,26.4,29.89,SW,234,17.0,17.0,51,0.00,CLR,,0.00,WeatherDisplay:10.37,2013-10-26 17:27:00,
2013-10-26 13:28:00,43.3,26.4,29.89,SSW,210,17.3,17.3,51,0.00,CLR,,0.00,WeatherDisplay:10.37,2013-10-26 17:28:00,
2013-10-26 13:29:00,43.3,26.4,29.89,SE,133,17.3,17.3,51,0.00,CLR,,0.00,WeatherDisplay:10.37,2013-10-26 17:29:00,
2013-10-26 13:30:00,43.3,26.4,29.88,South,172,2.3,2.3,51,0.00,CLR,,0.00,WeatherDisplay:10.37,2013-10-26 17:30:00,
2013-10-26 13:33:00,43.3,26.4,29.88,West,265,0.0,0.0,51,0.00,CLR,,0.00,WeatherDisplay:10.37,2013-10-26 17:33:00,
2013-10-26 13:34:00,43.3,26.4,29.88,West,263,0.0,0.0,51,0.00,CLR,,0.00,WeatherDisplay:10.37,2013-10-26 17:34:00,
2013-10-26 13:35:00,43.3,26.8,29.88,West,275,1.1,1.1,52,0.00,CLR,,0.00,WeatherDisplay:10.37,2013-10-26 17:35:00,
2013-10-26 13:38:00,43.3,26.8,29.88,SSW,203,1.1,1.1,52,0.00,CLR,,0.00,WeatherDisplay:10.37,2013-10-26 17:38:00,
2013-10-26 13:39:00,43.3,26.8,29.88,SSW,203,0.0,0.0,52,0.00,CLR,,0.00,WeatherDisplay:10.37,2013-10-26 17:39:00,
2013-10-26 13:40:00,43.3,26.8,29.88,SSE,161,1.1,1.1,52,0.00,CLR,,0.00,WeatherDisplay:10.37,2013-10-26 17:40:00,
2013-10-26 13:43:00,43.3,26.4,29.88,WSW,256,6.0,6.0,51,0.00,CLR,,0.00,WeatherDisplay:10.37,2013-10-26 17:43:00,
2013-10-26 13:44:00,43.3,26.4,29.88,WSW,241,8.1,8.1,51,0.00,CLR,,0.00,WeatherDisplay:10.37,2013-10-26 17:44:00,
2013-10-26 13:45:00,43.3,26.4,29.88,SSW,209,4.6,4.6,51,0.00,CLR,,0.00,WeatherDisplay:10.37,2013-10-26 17:45:00,
2013-10-26 13:48:00,43.3,26.8,29.88,West,264,3.5,3.5,52,0.00,CLR,,0.00,WeatherDisplay:10.37,2013-10-26 17:48:00,
2013-10-26 13:49:00,43.3,26.8,29.88,West,264,3.5,3.5,52,0.00,CLR,,0.00,WeatherDisplay:10.37,2013-10-26 17:49:00,
2013-10-26 13:50:00,43.3,26.4,29.88,West,264,1.1,1.1,51,0.00,CLR,,0.00,WeatherDisplay:10.37,2013-10-26 17:50:00,
2013-10-26 13:54:00,43.3,26.4,29.88,West,261,2.3,2.3,51,0.00,CLR,,0.00,WeatherDisplay:10.37,2013-10-26 17:54:00,
2013-10-26 13:55:00,43.3,26.4,29.88,SW,217,8.1,8.1,51,0.00,CLR,,0.00,WeatherDisplay:10.37,2013-10-26 17:55:00,
2013-10-26 13:59:00,43.5,26.6,29.88,SSE,148,1.1,0.0,51,0.00,CLR,,0.00,WeatherDisplay:10.37,2013-10-26 17:59:00,
2013-10-26 14:00:00,43.5,26.6,29.88,WSW,258,10.4,10.4,51,0.00,CLR,,0.00,WeatherDisplay:10.37,2013-10-26 18:00:00,
2013-10-26 14:01:00,43.5,26.6,29.88,SW,216,10.4,10.4,51,0.00,CLR,,0.00,WeatherDisplay:10.37,2013-10-26 18:01:00,
2013-10-26 14:04:00,43.5,26.6,29.88,South,182,1.1,1.1,51,0.00,CLR,,0.00,WeatherDisplay:10.37,2013-10-26 18:04:00,
2013-10-26 14:05:00,43.5,26.6,29.88,South,179,2.3,2.3,51,0.00,CLR,,0.00,WeatherDisplay:10.37,2013-10-26 18:05:00,
2013-10-26 14:06:00,43.6,26.2,29.88,South,191,1.1,0.0,50,0.00,CLR,,0.00,WeatherDisplay:10.37,2013-10-26 18:06:00,
2013-10-26 14:10:00,43.5,26.6,29.88,SSE,154,1.1,1.1,51,0.00,CLR,,0.00,WeatherDisplay:10.37,2013-10-26 18:10:00,
2013-10-26 14:11:00,43.5,26.6,29.88,West,275,0.0,0.0,51,0.00,CLR,,0.00,WeatherDisplay:10.37,2013-10-26 18:11:00,
2013-10-26 14:12:00,43.5,26.6,29.88,WSW,243,1.1,1.1,51,0.00,CLR,,0.00,WeatherDisplay:10.37,2013-10-26 18:12:00,
2013-10-26 14:15:00,43.5,26.6,29.88,West,278,1.1,1.1,51,0.00,CLR,,0.00,WeatherDisplay:10.37,2013-10-26 18:15:00,
2013-10-26 14:16:00,43.6,26.6,29.88,South,178,1.1,1.1,51,0.00,CLR,,0.00,WeatherDisplay:10.37,2013-10-26 18:16:00,
2013-10-26 14:17:00,43.6,26.6,29.88,SSE,148,0.0,0.0,51,0.00,CLR,,0.00,WeatherDisplay:10.37,2013-10-26 18:17:00,
2013-10-26 14:20:00,43.6,26.6,29.88,SSW,212,1.1,0.0,51,0.00,CLR,,0.00,WeatherDisplay:10.37,2013-10-26 18:20:00,
2013-10-26 14:21:00,43.6,26.6,29.88,West,260,0.0,0.1,51,0.00,CLR,,0.00,WeatherDisplay:10.37,2013-10-26 18:21:00,
2013-10-26 14:22:00,43.6,26.6,29.88,SSW,195,1.1,1.1,51,0.00,CLR,,0.00,WeatherDisplay:10.37,2013-10-26 18:22:00,
2013-10-26 14:26:00,43.6,26.6,29.88,WSW,251,1.1,0.0,51,0.00,CLR,,0.00,WeatherDisplay:10.37,2013-10-26 18:26:00,
2013-10-26 14:28:00,43.6,26.6,29.88,WSW,244,0.0,0.0,51,0.00,CLR,,0.00,WeatherDisplay:10.37,2013-10-26 18:28:00,
2013-10-26 14:31:00,43.8,26.8,29.87,SW,230,6.9,6.9,51,0.00,CLR,,0.00,WeatherDisplay:10.37,2013-10-26 18:31:00,
2013-10-26 14:32:00,43.8,26.8,29.88,SSE,165,1.1,1.1,51,0.00,CLR,,0.00,WeatherDisplay:10.37,2013-10-26 18:32:00,
2013-10-26 14:33:00,43.8,26.8,29.88,West,275,3.5,3.5,51,0.00,CLR,,0.00,WeatherDisplay:10.37,2013-10-26 18:33:00,
2013-10-26 14:36:00,43.8,26.8,29.88,SSW,212,2.0,2.0,51,0.00,CLR,,0.00,WeatherDisplay:10.37,2013-10-26 18:36:00,
2013-10-26 14:37:00,43.8,26.8,29.88,South,171,8.1,8.1,51,0.00,CLR,,0.00,WeatherDisplay:10.37,2013-10-26 18:37:00,
2013-10-26 14:38:00,43.8,26.3,29.87,SW,236,1.1,1.1,50,0.00,CLR,,0.00,WeatherDisplay:10.37,2013-10-26 18:38:00,
2013-10-26 14:41:00,43.9,26.4,29.88,West,278,13.8,13.8,50,0.00,CLR,,0.00,WeatherDisplay:10.37,2013-10-26 18:41:00,
2013-10-26 14:43:00,43.9,26.9,29.88,West,261,17.3,17.3,51,0.00,CLR,,0.00,WeatherDisplay:10.37,2013-10-26 18:43:00,
2013-10-26 14:44:00,43.9,26.4,29.88,WSW,237,8.1,8.1,50,0.00,CLR,,0.00,WeatherDisplay:10.37,2013-10-26 18:44:00,
2013-10-26 14:47:00,43.9,26.4,29.88,WSW,257,6.9,6.9,50,0.00,CLR,,0.00,WeatherDisplay:10.37,2013-10-26 18:47:00,
2013-10-26 14:48:00,43.9,26.9,29.88,SSE,155,1.1,1.1,51,0.00,CLR,,0.00,WeatherDisplay:10.37,2013-10-26 18:48:00,
2013-10-26 14:49:00,43.8,27.3,29.88,SSW,192,5.8,5.8,52,0.00,CLR,,0.00,WeatherDisplay:10.37,2013-10-26 18:49:00,
2013-10-26 14:52:00,43.8,27.3,29.88,SW,223,11.5,11.5,52,0.00,CLR,,0.00,WeatherDisplay:10.37,2013-10-26 18:52:00,
2013-10-26 14:53:00,43.8,27.3,29.87,SSE,151,0.0,0.0,52,0.00,CLR,,0.00,WeatherDisplay:10.37,2013-10-26 18:53:00,
2013-10-26 14:54:00,43.8,27.3,29.87,SE,136,1.1,1.1,52,0.00,CLR,,0.00,WeatherDisplay:10.37,2013-10-26 18:54:00,
2013-10-26 14:55:00,43.6,27.1,29.88,South,181,1.1,1.1,52,0.00,CLR,,0.00,WeatherDisplay:10.37,2013-10-26 18:55:00,
2013-10-26 14:57:00,43.6,27.6,29.87,South,175,2.3,2.3,53,0.00,CLR,,0.00,WeatherDisplay:10.37,2013-10-26 18:57:00,
2013-10-26 14:58:00,43.6,27.1,29.87,SW,219,5.8,5.8,52,0.00,CLR,,0.00,WeatherDisplay:10.37,2013-10-26 18:58:00,
2013-10-26 14:59:00,43.6,27.1,29.87,South,184,1.1,1.1,52,0.00,CLR,,0.00,WeatherDisplay:10.37,2013-10-26 18:59:00,
2013-10-26 15:00:00,43.6,27.6,29.87,SSW,209,0.0,0.0,53,0.00,CLR,,0.00,WeatherDisplay:10.37,2013-10-26 19:00:00,
2013-10-26 15:02:00,43.5,27.9,29.87,South,176,2.3,2.3,54,0.00,CLR,,0.00,WeatherDisplay:10.37,2013-10-26 19:02:00,
2013-10-26 15:03:00,43.5,27.9,29.87,West,280,2.3,2.3,54,0.00,CLR,,0.00,WeatherDisplay:10.37,2013-10-26 19:03:00,
2013-10-26 15:04:00,43.5,27.9,29.87,West,261,0.0,0.0,54,0.00,CLR,,0.00,WeatherDisplay:10.37,2013-10-26 19:04:00,
2013-10-26 15:06:00,43.3,27.8,29.87,SE,128,1.1,1.1,54,0.00,CLR,,0.00,WeatherDisplay:10.37,2013-10-26 19:06:00,
2013-10-26 15:07:00,43.3,27.8,29.87,South,182,2.3,2.3,54,0.00,CLR,,0.00,WeatherDisplay:10.37,2013-10-26 19:07:00,
2013-10-26 15:08:00,43.2,28.1,29.87,ESE,121,8.1,8.1,55,0.00,CLR,,0.00,WeatherDisplay:10.37,2013-10-26 19:08:00,
2013-10-26 15:09:00,43.2,28.1,29.87,South,188,2.3,2.3,55,0.00,CLR,,0.00,WeatherDisplay:10.37,2013-10-26 19:09:00,
2013-10-26 15:11:00,43.2,28.5,29.88,SW,224,1.1,1.1,56,0.00,CLR,,0.00,WeatherDisplay:10.37,2013-10-26 19:11:00,
2013-10-26 15:12:00,43.1,28.5,29.87,South,182,0.0,0.0,56,0.00,CLR,,0.00,WeatherDisplay:10.37,2013-10-26 19:12:00,
2013-10-26 15:13:00,43.1,28.5,29.87,SSE,158,0.0,0.0,56,0.00,CLR,,0.00,WeatherDisplay:10.37,2013-10-26 19:13:00,
2013-10-26 15:14:00,43.1,28.9,29.87,WSW,250,0.0,0.0,57,0.00,CLR,,0.00,WeatherDisplay:10.37,2013-10-26 19:14:00,
2013-10-26 15:17:00,42.9,28.7,29.88,SE,128,1.0,0.0,57,0.00,CLR,,0.00,WeatherDisplay:10.37,2013-10-26 19:17:00,
2013-10-26 15:18:00,42.9,28.7,29.87,SSW,209,0.0,0.3,57,0.00,CLR,,0.00,WeatherDisplay:10.37,2013-10-26 19:18:00,
2013-10-26 15:19:00,42.9,28.7,29.87,SSW,198,8.1,8.1,57,0.00,CLR,,0.00,WeatherDisplay:10.37,2013-10-26 19:19:00,
2013-10-26 15:20:00,42.9,28.7,29.87,SE,126,3.5,3.5,57,0.00,CLR,,0.00,WeatherDisplay:10.37,2013-10-26 19:20:00,
2013-10-26 15:22:00,42.9,28.7,29.86,SSE,147,3.5,3.5,57,0.00,CLR,,0.00,WeatherDisplay:10.37,2013-10-26 19:22:00,
2013-10-26 15:23:00,42.9,28.7,29.87,SE,145,3.0,3.0,57,0.00,CLR,,0.00,WeatherDisplay:10.37,2013-10-26 19:23:00,
2013-10-26 15:24:00,42.9,28.7,29.87,South,189,3.5,3.5,57,0.00,CLR,,0.00,WeatherDisplay:10.37,2013-10-26 19:24:00,
2013-10-26 15:25:00,42.9,28.7,29.87,SSE,161,1.1,0.0,57,0.00,CLR,,0.00,WeatherDisplay:10.37,2013-10-26 19:25:00,
2013-10-26 15:28:00,42.9,28.7,29.86,South,189,1.1,1.1,57,0.00,CLR,,0.00,WeatherDisplay:10.37,2013-10-26 19:28:00,
2013-10-26 15:29:00,42.9,28.7,29.86,SE,143,2.0,0.0,57,0.00,CLR,,0.00,WeatherDisplay:10.37,2013-10-26 19:29:00,
2013-10-26 15:30:00,42.9,28.3,29.86,SE,144,13.0,13.0,56,0.00,CLR,,0.00,WeatherDisplay:10.37,2013-10-26 19:30:00,
2013-10-26 15:33:00,42.9,28.7,29.85,West,263,2.3,2.3,57,0.00,CLR,,0.00,WeatherDisplay:10.37,2013-10-26 19:33:00,
2013-10-26 15:34:00,42.9,29.1,29.85,SSW,203,1.1,1.1,58,0.00,CLR,,0.00,WeatherDisplay:10.37,2013-10-26 19:34:00,
2013-10-26 15:35:00,42.8,29.0,29.86,SW,226,24.2,24.2,58,0.00,CLR,,0.00,WeatherDisplay:10.37,2013-10-26 19:35:00,
2013-10-26 15:36:00,42.8,29.5,29.86,WSW,253,24.2,24.2,59,0.01,RA,,0.01,WeatherDisplay:10.37,2013-10-26 19:36:00,
2013-10-26 15:38:00,42.6,29.7,29.85,SSW,213,1.1,1.1,60,0.01,RA,,0.01,WeatherDisplay:10.37,2013-10-26 19:38:00,
2013-10-26 15:39:00,42.6,29.7,29.86,SW,234,1.1,1.1,60,0.01,RA,,0.01,WeatherDisplay:10.37,2013-10-26 19:39:00,
2013-10-26 15:40:00,42.6,29.7,29.86,WNW,285,9.0,9.0,60,0.01,RA,,0.01,WeatherDisplay:10.37,2013-10-26 19:40:00,
2013-10-26 15:41:00,42.6,29.3,29.86,SW,236,9.2,9.2,59,0.01,RA,,0.01,WeatherDisplay:10.37,2013-10-26 19:41:00,
2013-10-26 15:43:00,42.5,29.2,29.86,NW,311,1.1,0.0,59,0.01,RA,,0.01,WeatherDisplay:10.37,2013-10-26 19:43:00,
2013-10-26 15:44:00,42.5,29.6,29.86,North,356,0.0,0.0,60,0.01,RA,,0.01,WeatherDisplay:10.37,2013-10-26 19:44:00,
2013-10-26 15:45:00,42.5,29.6,29.86,SSW,213,4.6,4.6,60,0.01,RA,,0.01,WeatherDisplay:10.37,2013-10-26 19:45:00,
2013-10-26 15:46:00,42.5,29.2,29.86,SW,217,1.1,1.1,59,0.01,,,0.01,WeatherDisplay:10.37,2013-10-26 19:46:00,
2013-10-26 15:48:00,42.6,29.3,29.86,West,272,2.3,2.3,59,0.01,CLR,,0.01,WeatherDisplay:10.37,2013-10-26 19:48:00,
2013-10-26 15:49:00,42.6,29.3,29.86,SW,219,1.1,1.1,59,0.01,CLR,,0.01,WeatherDisplay:10.37,2013-10-26 19:49:00,
2013-10-26 15:50:00,42.6,29.3,29.86,WSW,237,1.1,0.0,59,0.01,CLR,,0.01,WeatherDisplay:10.37,2013-10-26 19:50:00,
2013-10-26 15:52:00,42.6,29.3,29.87,SW,224,2.3,0.0,59,0.01,CLR,,0.01,WeatherDisplay:10.37,2013-10-26 19:52:00,
2013-10-26 15:53:00,42.6,29.3,29.87,West,280,6.0,6.0,59,0.01,CLR,,0.01,WeatherDisplay:10.37,2013-10-26 19:53:00,
2013-10-26 15:54:00,42.6,29.3,29.87,West,268,5.8,5.8,59,0.01,CLR,,0.01,WeatherDisplay:10.37,2013-10-26 19:54:00,
2013-10-26 15:55:00,42.6,28.8,29.87,WSW,248,1.1,1.1,58,0.01,CLR,,0.01,WeatherDisplay:10.37,2013-10-26 19:55:00,
2013-10-26 15:57:00,42.8,29.0,29.87,WNW,282,0.0,0.0,58,0.01,CLR,,0.01,WeatherDisplay:10.37,2013-10-26 19:57:00,
2013-10-26 15:58:00,42.8,29.0,29.87,WNW,282,0.0,0.0,58,0.01,CLR,,0.01,WeatherDisplay:10.37,2013-10-26 19:58:00,
2013-10-26 15:59:00,42.8,29.0,29.87,West,281,0.0,0.0,58,0.01,CLR,,0.01,WeatherDisplay:10.37,2013-10-26 19:59:00,
2013-10-26 16:00:00,42.8,29.0,29.87,SSW,213,1.1,1.1,58,0.01,CLR,,0.01,WeatherDisplay:10.37,2013-10-26 20:00:00,
2013-10-26 16:02:00,42.8,28.6,29.87,SW,230,1.1,0.0,57,0.01,CLR,,0.01,WeatherDisplay:10.37,2013-10-26 20:02:00,
2013-10-26 16:03:00,42.9,28.7,29.87,WSW,246,6.9,6.9,57,0.01,CLR,,0.01,WeatherDisplay:10.37,2013-10-26 20:03:00,
2013-10-26 16:04:00,42.9,28.7,29.87,WSW,246,10.4,10.4,57,0.01,CLR,,0.01,WeatherDisplay:10.37,2013-10-26 20:04:00,
2013-10-26 16:05:00,42.9,28.7,29.87,WNW,285,0.0,0.1,57,0.01,CLR,,0.01,WeatherDisplay:10.37,2013-10-26 20:05:00,
2013-10-26 16:06:00,42.9,28.7,29.87,SW,216,5.0,5.0,57,0.01,CLR,,0.01,WeatherDisplay:10.37,2013-10-26 20:06:00,
2013-10-26 16:07:00,42.9,28.7,29.87,WSW,248,11.5,11.5,57,0.01,CLR,,0.01,WeatherDisplay:10.37,2013-10-26 20:07:00,
2013-10-26 16:09:00,43.1,28.9,29.87,SW,220,8.1,8.1,57,0.01,CLR,,0.01,WeatherDisplay:10.37,2013-10-26 20:09:00,
2013-10-26 16:10:00,43.1,28.5,29.87,SW,223,6.9,0.0,56,0.01,CLR,,0.01,WeatherDisplay:10.37,2013-10-26 20:10:00,
2013-10-26 16:11:00,43.1,28.5,29.87,NNW,332,0.0,0.0,56,0.01,CLR,,0.01,WeatherDisplay:10.37,2013-10-26 20:11:00,
2013-10-26 16:12:00,43.1,28.5,29.87,North,0,0.0,0.0,56,0.01,CLR,,0.01,WeatherDisplay:10.37,2013-10-26 20:12:00,
2013-10-26 16:14:00,43.2,28.5,29.87,West,272,6.9,6.9,56,0.01,CLR,,0.01,WeatherDisplay:10.37,2013-10-26 20:14:00,
2013-10-26 16:15:00,43.2,28.5,29.87,West,261,13.8,13.8,56,0.01,CLR,,0.01,WeatherDisplay:10.37,2013-10-26 20:15:00,
2013-10-26 16:16:00,43.2,28.1,29.88,SSW,210,12.7,12.7,55,0.01,CLR,,0.01,WeatherDisplay:10.37,2013-10-26 20:16:00,
2013-10-26 16:17:00,43.3,28.2,29.88,West,265,9.2,9.2,55,0.01,CLR,,0.01,WeatherDisplay:10.37,2013-10-26 20:17:00,
2013-10-26 16:19:00,43.3,28.6,29.87,West,268,4.6,4.6,56,0.01,CLR,,0.01,WeatherDisplay:10.37,2013-10-26 20:19:00,
2013-10-26 16:20:00,43.3,28.6,29.87,WSW,251,0.0,0.1,56,0.01,CLR,,0.01,WeatherDisplay:10.37,2013-10-26 20:20:00,
2013-10-26 16:21:00,43.3,28.6,29.87,West,260,1.1,1.1,56,0.01,CLR,,0.01,WeatherDisplay:10.37,2013-10-26 20:21:00,
2013-10-26 16:22:00,43.3,28.2,29.87,West,264,2.3,2.3,55,0.01,CLR,,0.01,WeatherDisplay:10.37,2013-10-26 20:22:00,
2013-10-26 16:23:00,43.3,28.2,29.87,WSW,240,1.1,1.1,55,0.01,CLR,,0.01,WeatherDisplay:10.37,2013-10-26 20:23:00,
2013-10-26 16:24:00,43.3,28.6,29.87,SW,236,11.5,11.5,56,0.01,CLR,,0.01,WeatherDisplay:10.37,2013-10-26 20:24:00,
2013-10-26 16:26:00,43.3,28.6,29.87,WSW,240,10.4,10.4,56,0.01,CLR,,0.01,WeatherDisplay:10.37,2013-10-26 20:26:00,
2013-10-26 16:28:00,43.3,28.6,29.87,SE,136,1.1,1.1,56,0.01,CLR,,0.01,WeatherDisplay:10.37,2013-10-26 20:28:00,
2013-10-26 16:29:00,43.3,28.6,29.87,South,174,2.3,2.3,56,0.01,CLR,,0.01,WeatherDisplay:10.37,2013-10-26 20:29:00,
2013-10-26 16:31:00,43.3,28.2,29.87,WSW,244,6.9,6.9,55,0.01,CLR,,0.01,WeatherDisplay:10.37,2013-10-26 20:31:00,
2013-10-26 16:32:00,43.3,28.2,29.87,WSW,248,11.5,11.5,55,0.01,CLR,,0.01,WeatherDisplay:10.37,2013-10-26 20:32:00,
2013-10-26 16:33:00,43.5,28.4,29.87,NNW,340,2.3,2.3,55,0.01,CLR,,0.01,WeatherDisplay:10.37,2013-10-26 20:33:00,
2013-10-26 16:34:00,43.5,28.4,29.87,WNW,287,1.1,1.1,55,0.01,CLR,,0.01,WeatherDisplay:10.37,2013-10-26 20:34:00,
2013-10-26 16:37:00,43.5,28.8,29.87,SSE,161,2.3,2.3,56,0.00,CLR,,0.01,WeatherDisplay:10.37,2013-10-26 20:37:00,
2013-10-26 16:38:00,43.5,28.4,29.87,West,268,11.5,11.5,55,0.00,CLR,,0.01,WeatherDisplay:10.37,2013-10-26 20:38:00,
2013-10-26 16:39:00,43.5,28.4,29.87,ESE,109,16.1,16.1,55,0.00,CLR,,0.01,WeatherDisplay:10.37,2013-10-26 20:39:00,
2013-10-26 16:40:00,43.5,28.4,29.87,South,181,3.5,3.5,55,0.00,CLR,,0.01,WeatherDisplay:10.37,2013-10-26 20:40:00,
2013-10-26 16:42:00,43.3,28.6,29.87,SSW,203,1.1,1.1,56,0.00,CLR,,0.01,WeatherDisplay:10.37,2013-10-26 20:42:00,
2013-10-26 16:43:00,43.3,28.6,29.87,WNW,292,1.1,0.0,56,0.00,CLR,,0.01,WeatherDisplay:10.37,2013-10-26 20:43:00,
2013-10-26 16:44:00,43.3,28.2,29.87,West,277,17.0,17.0,55,0.00,CLR,,0.01,WeatherDisplay:10.37,2013-10-26 20:44:00,
2013-10-26 16:45:00,43.5,28.4,29.87,West,272,17.3,17.3,55,0.00,CLR,,0.01,WeatherDisplay:10.37,2013-10-26 20:45:00,
2013-10-26 16:47:00,43.5,28.8,29.87,West,261,5.8,0.0,56,0.00,CLR,,0.01,WeatherDisplay:10.37,2013-10-26 20:47:00,
2013-10-26 16:48:00,43.5,28.8,29.87,West,271,1.1,1.1,56,0.00,CLR,,0.01,WeatherDisplay:10.37,2013-10-26 20:48:00,
2013-10-26 16:49:00,43.5,28.8,29.87,SE,140,1.1,1.1,56,0.00,CLR,,0.01,WeatherDisplay:10.37,2013-10-26 20:49:00,
2013-10-26 16:50:00,43.5,28.4,29.87,SSW,212,2.3,2.3,55,0.00,CLR,,0.01,WeatherDisplay:10.37,2013-10-26 20:50:00,
2013-10-26 16:52:00,43.5,28.8,29.87,WSW,257,0.0,0.9,56,0.00,CLR,,0.01,WeatherDisplay:10.37,2013-10-26 20:52:00,
2013-10-26 16:53:00,43.5,28.8,29.87,SW,232,4.6,4.6,56,0.00,CLR,,0.01,WeatherDisplay:10.37,2013-10-26 20:53:00,
2013-10-26 16:54:00,43.5,28.8,29.87,SSW,209,1.1,0.0,56,0.00,CLR,,0.01,WeatherDisplay:10.37,2013-10-26 20:54:00,
2013-10-26 16:55:00,43.5,28.8,29.87,SSW,210,1.1,0.0,56,0.00,CLR,,0.01,WeatherDisplay:10.37,2013-10-26 20:55:00,
2013-10-26 16:58:00,43.5,28.8,29.87,SW,216,0.0,0.0,56,0.00,CLR,,0.01,WeatherDisplay:10.37,2013-10-26 20:58:00,
2013-10-26 16:59:00,43.5,28.8,29.87,SSW,192,0.0,0.0,56,0.00,CLR,,0.01,WeatherDisplay:10.37,2013-10-26 20:59:00,
2013-10-26 17:00:00,43.5,28.8,29.87,SSW,193,0.0,0.0,56,0.00,CLR,,0.01,WeatherDisplay:10.37,2013-10-26 21:00:00,
2013-10-26 17:01:00,43.5,28.8,29.87,SSW,193,0.0,0.0,56,0.00,CLR,,0.01,WeatherDisplay:10.37,2013-10-26 21:01:00,
2013-10-26 17:03:00,43.5,28.8,29.86,South,191,0.0,0.0,56,0.00,CLR,,0.01,WeatherDisplay:10.37,2013-10-26 21:03:00,
2013-10-26 17:04:00,43.5,28.8,29.86,SSW,210,0.0,0.1,56,0.00,CLR,,0.01,WeatherDisplay:10.37,2013-10-26 21:04:00,
2013-10-26 17:05:00,43.5,28.8,29.86,WSW,248,1.1,1.1,56,0.00,CLR,,0.01,WeatherDisplay:10.37,2013-10-26 21:05:00,
2013-10-26 17:06:00,43.5,28.8,29.86,WSW,248,0.0,0.0,56,0.00,CLR,,0.01,WeatherDisplay:10.37,2013-10-26 21:06:00,
2013-10-26 17:08:00,43.5,28.8,29.87,WSW,246,1.1,1.1,56,0.00,CLR,,0.01,WeatherDisplay:10.37,2013-10-26 21:08:00,
2013-10-26 17:10:00,43.5,28.8,29.86,SW,234,4.6,4.6,56,0.00,CLR,,0.01,WeatherDisplay:10.37,2013-10-26 21:10:00,
2013-10-26 17:11:00,43.5,28.4,29.86,WSW,246,18.4,18.4,55,0.00,CLR,,0.01,WeatherDisplay:10.37,2013-10-26 21:11:00,
2013-10-26 17:13:00,43.6,28.5,29.86,WSW,251,1.1,1.1,55,0.00,CLR,,0.01,WeatherDisplay:10.37,2013-10-26 21:13:00,
2013-10-26 17:15:00,43.6,28.5,29.86,West,264,1.1,1.1,55,0.00,CLR,,0.01,WeatherDisplay:10.37,2013-10-26 21:15:00,
2013-10-26 17:16:00,43.6,28.5,29.86,WSW,240,1.1,1.1,55,0.00,CLR,,0.01,WeatherDisplay:10.37,2013-10-26 21:16:00,
2013-10-26 17:19:00,43.6,28.5,29.87,SSE,164,0.0,0.0,55,0.00,CLR,,0.01,WeatherDisplay:10.37,2013-10-26 21:19:00,
2013-10-26 17:20:00,43.6,28.5,29.87,SSW,195,1.1,2.1,55,0.00,CLR,,0.01,WeatherDisplay:10.37,2013-10-26 21:20:00,
2013-10-26 17:21:00,43.6,28.0,29.87,SE,143,10.4,10.4,54,0.00,CLR,,0.01,WeatherDisplay:10.37,2013-10-26 21:21:00,
2013-10-26 17:23:00,43.6,28.0,29.86,SSW,205,1.1,0.0,54,0.00,CLR,,0.01,WeatherDisplay:10.37,2013-10-26 21:23:00,
2013-10-26 17:24:00,43.6,28.0,29.87,SSW,208,0.0,0.0,54,0.00,CLR,,0.01,WeatherDisplay:10.37,2013-10-26 21:24:00,
2013-10-26 17:25:00,43.6,28.0,29.86,West,271,6.9,6.9,54,0.00,CLR,,0.01,WeatherDisplay:10.37,2013-10-26 21:25:00,
2013-10-26 17:26:00,43.6,28.0,29.87,WSW,251,6.9,6.9,54,0.00,CLR,,0.01,WeatherDisplay:10.37,2013-10-26 21:26:00,
2013-10-26 17:27:00,43.6,28.0,29.87,SSE,151,1.1,1.1,54,0.00,CLR,,0.01,WeatherDisplay:10.37,2013-10-26 21:27:00,
2013-10-26 17:28:00,43.8,28.2,29.87,ESE,121,1.1,1.1,54,0.00,CLR,,0.01,WeatherDisplay:10.37,2013-10-26 21:28:00,
2013-10-26 17:29:00,43.8,28.2,29.87,WSW,254,8.1,8.1,54,0.00,CLR,,0.01,WeatherDisplay:10.37,2013-10-26 21:29:00,
2013-10-26 17:31:00,43.8,28.2,29.87,WSW,251,11.5,11.5,54,0.00,CLR,,0.01,WeatherDisplay:10.37,2013-10-26 21:31:00,
2013-10-26 17:32:00,43.8,28.2,29.88,West,260,2.3,2.3,54,0.00,CLR,,0.01,WeatherDisplay:10.37,2013-10-26 21:32:00,
2013-10-26 17:33:00,43.8,28.2,29.88,NW,309,11.5,11.5,54,0.00,CLR,,0.01,WeatherDisplay:10.37,2013-10-26 21:33:00,
2013-10-26 17:34:00,43.8,28.2,29.87,WNW,302,6.9,0.0,54,0.00,CLR,,0.01,WeatherDisplay:10.37,2013-10-26 21:34:00,
2013-10-26 17:36:00,43.8,28.2,29.87,WSW,247,0.0,0.2,54,0.00,CLR,,0.01,WeatherDisplay:10.37,2013-10-26 21:36:00,
2013-10-26 17:37:00,43.8,28.2,29.87,SW,215,1.1,0.0,54,0.00,CLR,,0.01,WeatherDisplay:10.37,2013-10-26 21:37:00,
2013-10-26 17:38:00,43.8,28.2,29.87,South,176,1.1,1.1,54,0.00,CLR,,0.01,WeatherDisplay:10.37,2013-10-26 21:38:00,
2013-10-26 17:40:00,43.8,28.7,29.87,West,272,1.1,1.1,55,0.00,CLR,,0.01,WeatherDisplay:10.37,2013-10-26 21:40:00,
2013-10-26 17:41:00,43.8,28.7,29.87,WSW,251,0.0,0.0,55,0.00,CLR,,0.01,WeatherDisplay:10.37,2013-10-26 21:41:00,
2013-10-26 17:42:00,43.6,28.5,29.87,SSE,167,2.3,2.3,55,0.00,CLR,,0.01,WeatherDisplay:10.37,2013-10-26 21:42:00,
2013-10-26 17:43:00,43.6,28.5,29.87,WSW,253,1.1,1.1,55,0.00,CLR,,0.01,WeatherDisplay:10.37,2013-10-26 21:43:00,
2013-10-26 17:44:00,43.6,28.5,29.87,SE,127,5.8,5.8,55,0.00,CLR,,0.01,WeatherDisplay:10.37,2013-10-26 21:44:00,
2013-10-26 17:45:00,43.6,28.0,29.87,NNW,335,12.7,12.7,54,0.00,CLR,,0.01,WeatherDisplay:10.37,2013-10-26 21:45:00,
2013-10-26 17:46:00,43.6,28.0,29.87,SW,217,2.3,2.3,54,0.00,CLR,,0.01,WeatherDisplay:10.37,2013-10-26 21:46:00,
2013-10-26 17:48:00,43.8,28.2,29.87,WSW,253,0.0,0.0,54,0.00,CLR,,0.01,WeatherDisplay:10.37,2013-10-26 21:48:00,
2013-10-26 17:49:00,43.8,28.2,29.87,WSW,256,0.0,0.0,54,0.00,CLR,,0.01,WeatherDisplay:10.37,2013-10-26 21:49:00,
2013-10-26 17:50:00,43.6,28.0,29.87,SW,219,3.5,3.5,54,0.00,CLR,,0.01,WeatherDisplay:10.37,2013-10-26 21:50:00,
2013-10-26 17:51:00,43.8,28.2,29.87,WSW,237,1.1,0.0,54,0.00,CLR,,0.01,WeatherDisplay:10.37,2013-10-26 21:51:00,
2013-10-26 17:53:00,43.8,28.2,29.87,SW,220,1.1,1.1,54,0.00,CLR,,0.01,WeatherDisplay:10.37,2013-10-26 21:53:00,
2013-10-26 17:54:00,43.8,28.2,29.87,West,261,1.1,1.1,54,0.00,CLR,,0.01,WeatherDisplay:10.37,2013-10-26 21:54:00,
2013-10-26 17:55:00,43.8,28.2,29.87,SW,223,1.1,0.0,54,0.00,CLR,,0.01,WeatherDisplay:10.37,2013-10-26 21:55:00,
2013-10-26 17:56:00,43.8,28.2,29.87,SW,219,0.0,0.0,54,0.00,CLR,,0.01,WeatherDisplay:10.37,2013-10-26 21:56:00,
2013-10-26 17:58:00,43.8,28.7,29.87,NW,313,0.0,0.2,55,0.00,CLR,,0.01,WeatherDisplay:10.37,2013-10-26 21:58:00,
2013-10-26 17:59:00,43.8,28.2,29.87,SW,230,1.1,0.0,54,0.00,CLR,,0.01,WeatherDisplay:10.37,2013-10-26 21:59:00,
2013-10-26 18:00:00,43.8,28.2,29.88,SW,230,1.1,0.0,54,0.00,CLR,,0.01,WeatherDisplay:10.37,2013-10-26 22:00:00,
2013-10-26 18:01:00,43.8,28.2,29.88,WSW,253,0.0,0.1,54,0.00,CLR,,0.01,WeatherDisplay:10.37,2013-10-26 22:01:00,
2013-10-26 18:03:00,43.8,28.7,29.88,SSW,198,1.1,1.1,55,0.00,CLR,,0.01,WeatherDisplay:10.37,2013-10-26 22:03:00,
2013-10-26 18:04:00,43.8,28.7,29.88,South,181,0.0,0.0,55,0.00,CLR,,0.01,WeatherDisplay:10.37,2013-10-26 22:04:00,
2013-10-26 18:06:00,43.6,29.4,29.88,ESE,121,6.9,0.0,57,0.00,CLR,,0.01,WeatherDisplay:10.37,2013-10-26 22:06:00,
2013-10-26 18:08:00,43.5,30.1,29.88,South,186,0.0,0.0,59,0.00,CLR,,0.01,WeatherDisplay:10.37,2013-10-26 22:08:00,
2013-10-26 18:09:00,43.5,30.1,29.88,South,186,0.0,0.0,59,0.00,CLR,,0.01,WeatherDisplay:10.37,2013-10-26 22:09:00,
2013-10-26 18:11:00,43.2,30.2,29.88,SSW,212,1.0,0.0,60,0.00,CLR,,0.01,WeatherDisplay:10.37,2013-10-26 22:11:00,
2013-10-26 18:14:00,43.1,30.1,29.88,SSW,202,0.0,0.0,60,0.00,CLR,,0.01,WeatherDisplay:10.37,2013-10-26 22:14:00,
2013-10-26 18:15:00,43.1,30.1,29.88,SSW,202,0.0,0.0,60,0.00,CLR,,0.01,WeatherDisplay:10.37,2013-10-26 22:15:00,
2013-10-26 18:16:00,42.9,30.0,29.88,WSW,237,1.1,0.0,60,0.00,CLR,,0.01,WeatherDisplay:10.37,2013-10-26 22:16:00,
2013-10-26 18:17:00,42.9,30.0,29.88,WSW,237,0.0,0.0,60,0.00,CLR,,0.01,WeatherDisplay:10.37,2013-10-26 22:17:00,
2013-10-26 18:19:00,42.9,30.0,29.88,WSW,251,8.1,8.1,60,0.00,CLR,,0.01,WeatherDisplay:10.37,2013-10-26 22:19:00,
2013-10-26 18:20:00,42.9,29.5,29.88,WSW,254,10.4,0.0,59,0.00,CLR,,0.01,WeatherDisplay:10.37,2013-10-26 22:20:00,
2013-10-26 18:21:00,42.9,29.5,29.88,SSE,150,0.0,0.0,59,0.00,CLR,,0.01,WeatherDisplay:10.37,2013-10-26 22:21:00,
2013-10-26 18:22:00,43.1,29.3,29.87,South,184,1.1,1.1,58,0.00,CLR,,0.01,WeatherDisplay:10.37,2013-10-26 22:22:00,
2013-10-26 18:24:00,43.1,28.9,29.88,WSW,248,11.5,11.5,57,0.00,CLR,,0.01,WeatherDisplay:10.37,2013-10-26 22:24:00,
2013-10-26 18:25:00,43.2,29.0,29.88,WSW,248,4.6,0.0,57,0.00,CLR,,0.01,WeatherDisplay:10.37,2013-10-26 22:25:00,
2013-10-26 18:26:00,43.2,29.0,29.87,SW,222,0.0,0.0,57,0.00,CLR,,0.01,WeatherDisplay:10.37,2013-10-26 22:26:00,
2013-10-26 18:27:00,43.2,29.0,29.88,SSW,196,1.1,1.1,57,0.00,CLR,,0.01,WeatherDisplay:10.37,2013-10-26 22:27:00,
2013-10-26 18:29:00,43.3,29.1,29.88,West,263,0.0,0.1,57,0.00,CLR,,0.01,WeatherDisplay:10.37,2013-10-26 22:29:00,
2013-10-26 18:30:00,43.3,29.1,29.88,West,264,1.1,1.1,57,0.00,CLR,,0.01,WeatherDisplay:10.37,2013-10-26 22:30:00,
2013-10-26 18:31:00,43.3,29.1,29.88,SW,236,1.1,1.1,57,0.00,CLR,,0.01,WeatherDisplay:10.37,2013-10-26 22:31:00,
2013-10-26 18:32:00,43.3,29.1,29.88,SW,234,0.0,0.0,57,0.00,CLR,,0.01,WeatherDisplay:10.37,2013-10-26 22:32:00,
2013-10-26 18:34:00,43.3,29.1,29.88,South,172,2.3,0.0,57,0.00,CLR,,0.01,WeatherDisplay:10.37,2013-10-26 22:34:00,
2013-10-26 18:35:00,43.3,29.1,29.88,West,267,1.1,1.1,57,0.00,CLR,,0.01,WeatherDisplay:10.37,2013-10-26 22:35:00,
2013-10-26 18:36:00,43.3,28.6,29.88,SSW,192,1.1,1.1,56,0.00,CLR,,0.01,WeatherDisplay:10.37,2013-10-26 22:36:00,
2013-10-26 18:37:00,43.5,29.3,29.87,WSW,247,1.1,1.1,57,0.00,CLR,,0.01,WeatherDisplay:10.37,2013-10-26 22:37:00,
2013-10-26 18:38:00,43.5,28.8,29.87,SW,230,1.1,0.0,56,0.00,CLR,,0.01,WeatherDisplay:10.37,2013-10-26 22:38:00,
2013-10-26 18:39:00,43.5,29.3,29.87,WSW,243,0.0,0.0,57,0.00,CLR,,0.01,WeatherDisplay:10.37,2013-10-26 22:39:00,
2013-10-26 18:41:00,43.5,28.8,29.87,SE,145,2.3,2.3,56,0.00,CLR,,0.01,WeatherDisplay:10.37,2013-10-26 22:41:00,
2013-10-26 18:42:00,43.5,28.8,29.87,SW,234,0.0,0.0,56,0.00,CLR,,0.01,WeatherDisplay:10.37,2013-10-26 22:42:00,
2013-10-26 18:43:00,43.5,28.8,29.87,South,184,0.0,0.0,56,0.00,CLR,,0.01,WeatherDisplay:10.37,2013-10-26 22:43:00,
2013-10-26 18:44:00,43.5,28.8,29.88,WSW,253,0.0,0.2,56,0.00,CLR,,0.01,WeatherDisplay:10.37,2013-10-26 22:44:00,
2013-10-26 18:46:00,43.6,28.5,29.88,West,260,8.1,8.1,55,0.00,CLR,,0.01,WeatherDisplay:10.37,2013-10-26 22:46:00,
2013-10-26 18:47:00,43.6,28.5,29.88,West,260,0.0,0.0,55,0.00,CLR,,0.01,WeatherDisplay:10.37,2013-10-26 22:47:00,
2013-10-26 18:49:00,43.6,28.9,29.88,West,272,1.1,0.0,56,0.00,CLR,,0.01,WeatherDisplay:10.37,2013-10-26 22:49:00,
2013-10-26 18:51:00,43.6,28.9,29.88,West,265,2.3,2.3,56,0.00,CLR,,0.01,WeatherDisplay:10.37,2013-10-26 22:51:00,
2013-10-26 18:52:00,43.6,28.9,29.88,SE,138,1.1,0.0,56,0.00,CLR,,0.01,WeatherDisplay:10.37,2013-10-26 22:52:00,
2013-10-26 18:54:00,43.6,28.9,29.88,South,186,1.1,1.1,56,0.00,CLR,,0.01,WeatherDisplay:10.37,2013-10-26 22:54:00,
2013-10-26 18:55:00,43.6,28.9,29.88,South,186,1.1,0.0,56,0.00,CLR,,0.01,WeatherDisplay:10.37,2013-10-26 22:55:00,
2013-10-26 18:56:00,43.6,28.9,29.88,SSE,165,10.4,10.4,56,0.00,CLR,,0.01,WeatherDisplay:10.37,2013-10-26 22:56:00,
2013-10-26 18:57:00,43.6,28.5,29.87,SE,145,1.1,1.1,55,0.00,CLR,,0.01,WeatherDisplay:10.37,2013-10-26 22:57:00,
2013-10-26 18:59:00,43.8,28.7,29.88,WNW,284,1.1,1.6,55,0.00,CLR,,0.01,WeatherDisplay:10.37,2013-10-26 22:59:00,
2013-10-26 19:00:00,43.8,28.7,29.88,SSW,198,11.5,11.5,55,0.00,CLR,,0.01,WeatherDisplay:10.37,2013-10-26 23:00:00,
2013-10-26 19:02:00,43.8,28.7,29.88,NW,304,2.3,2.3,55,0.00,CLR,,0.01,WeatherDisplay:10.37,2013-10-26 23:02:00,
2013-10-26 19:03:00,43.8,28.7,29.88,SE,140,11.5,11.5,55,0.00,CLR,,0.01,WeatherDisplay:10.37,2013-10-26 23:03:00,
2013-10-26 19:04:00,43.9,28.8,29.88,SSW,196,6.9,6.9,55,0.00,CLR,,0.01,WeatherDisplay:10.37,2013-10-26 23:04:00,
2013-10-26 19:05:00,43.9,28.8,29.88,SE,126,1.1,1.1,55,0.00,CLR,,0.01,WeatherDisplay:10.37,2013-10-26 23:05:00,
2013-10-26 19:07:00,43.9,28.8,29.88,WSW,239,9.0,0.0,55,0.00,CLR,,0.01,WeatherDisplay:10.37,2013-10-26 23:07:00,
2013-10-26 19:08:00,43.9,28.8,29.88,WSW,239,9.2,9.2,55,0.00,CLR,,0.01,WeatherDisplay:10.37,2013-10-26 23:08:00,
2013-10-26 19:09:00,43.9,28.8,29.88,WSW,251,5.8,0.0,55,0.00,CLR,,0.01,WeatherDisplay:10.37,2013-10-26 23:09:00,
2013-10-26 19:11:00,43.9,28.8,29.88,WSW,239,11.5,11.5,55,0.00,CLR,,0.01,WeatherDisplay:10.37,2013-10-26 23:11:00,
2013-10-26 19:12:00,43.9,28.8,29.88,SW,223,2.3,2.3,55,0.00,CLR,,0.01,WeatherDisplay:10.37,2013-10-26 23:12:00,
2013-10-26 19:13:00,43.9,28.8,29.88,SW,223,1.1,1.1,55,0.00,CLR,,0.01,WeatherDisplay:10.37,2013-10-26 23:13:00,
2013-10-26 19:15:00,43.9,28.8,29.88,SE,144,1.0,0.0,55,0.00,CLR,,0.01,WeatherDisplay:10.37,2013-10-26 23:15:00,
2013-10-26 19:16:00,43.9,28.8,29.88,West,270,11.5,11.5,55,0.00,CLR,,0.01,WeatherDisplay:10.37,2013-10-26 23:16:00,
2013-10-26 19:17:00,43.9,28.8,29.88,West,281,1.1,0.0,55,0.00,CLR,,0.01,WeatherDisplay:10.37,2013-10-26 23:17:00,
2013-10-26 19:18:00,43.9,28.8,29.88,West,280,1.1,0.0,55,0.00,CLR,,0.01,WeatherDisplay:10.37,2013-10-26 23:18:00,
2013-10-26 19:19:00,43.9,29.2,29.88,East,97,1.1,0.0,56,0.00,CLR,,0.01,WeatherDisplay:10.37,2013-10-26 23:19:00,
2013-10-26 19:20:00,43.9,28.8,29.88,SW,229,1.1,0.0,55,0.00,CLR,,0.01,WeatherDisplay:10.37,2013-10-26 23:20:00,
2013-10-26 19:21:00,43.9,28.8,29.88,SW,226,1.1,1.1,55,0.00,CLR,,0.01,WeatherDisplay:10.37,2013-10-26 23:21:00,
2013-10-26 19:23:00,43.9,28.8,29.88,SW,232,1.1,0.0,55,0.00,CLR,,0.01,WeatherDisplay:10.37,2013-10-26 23:23:00,
2013-10-26 19:24:00,43.9,28.8,29.88,SW,226,12.7,12.7,55,0.00,CLR,,0.01,WeatherDisplay:10.37,2013-10-26 23:24:00,
2013-10-26 19:25:00,43.9,28.8,29.88,SSW,205,2.3,2.3,55,0.00,CLR,,0.01,WeatherDisplay:10.37,2013-10-26 23:25:00,
2013-10-26 19:26:00,43.9,28.8,29.88,NW,308,1.1,1.1,55,0.00,CLR,,0.01,WeatherDisplay:10.37,2013-10-26 23:26:00,
2013-10-26 19:28:00,44.1,28.9,29.88,WSW,256,1.1,1.1,55,0.00,CLR,,0.01,WeatherDisplay:10.37,2013-10-26 23:28:00,
2013-10-26 19:30:00,44.1,28.9,29.88,SSW,200,1.1,1.1,55,0.00,CLR,,0.01,WeatherDisplay:10.37,2013-10-26 23:30:00,
2013-10-26 19:31:00,43.9,29.6,29.88,SSW,213,1.1,1.1,57,0.00,CLR,,0.01,WeatherDisplay:10.37,2013-10-26 23:31:00,
2013-10-26 19:33:00,43.9,30.1,29.88,West,274,0.0,0.1,58,0.00,CLR,,0.01,WeatherDisplay:10.37,2013-10-26 23:33:00,
2013-10-26 19:34:00,43.8,30.0,29.88,West,272,1.1,1.1,58,0.00,CLR,,0.01,WeatherDisplay:10.37,2013-10-26 23:34:00,
2013-10-26 19:35:00,43.8,30.0,29.88,West,274,0.0,0.0,58,0.00,CLR,,0.01,WeatherDisplay:10.37,2013-10-26 23:35:00,
2013-10-26 19:36:00,43.8,30.4,29.88,West,271,0.0,0.0,59,0.00,CLR,,0.01,WeatherDisplay:10.37,2013-10-26 23:36:00,
2013-10-26 19:37:00,43.6,30.2,29.88,SSW,196,1.1,1.1,59,0.00,CLR,,0.01,WeatherDisplay:10.37,2013-10-26 23:37:00,
2013-10-26 19:39:00,43.5,30.1,29.88,SSE,158,1.1,1.1,59,0.00,CLR,,0.01,WeatherDisplay:10.37,2013-10-26 23:39:00,
2013-10-26 19:40:00,43.5,30.1,29.88,South,174,1.1,1.1,59,0.00,CLR,,0.01,WeatherDisplay:10.37,2013-10-26 23:40:00,
2013-10-26 19:41:00,43.5,30.1,29.88,SSE,162,1.1,1.1,59,0.00,CLR,,0.01,WeatherDisplay:10.37,2013-10-26 23:41:00,
2013-10-26 19:42:00,43.3,30.3,29.88,SW,223,1.1,0.0,60,0.00,CLR,,0.01,WeatherDisplay:10.37,2013-10-26 23:42:00,
2013-10-26 19:44:00,43.3,30.3,29.88,SW,227,10.4,10.4,60,0.00,CLR,,0.01,WeatherDisplay:10.37,2013-10-26 23:44:00,
2013-10-26 19:45:00,43.3,30.3,29.88,SSE,160,1.1,0.0,60,0.00,CLR,,0.01,WeatherDisplay:10.37,2013-10-26 23:45:00,
2013-10-26 19:46:00,43.2,30.2,29.88,WSW,237,2.3,2.3,60,0.00,CLR,,0.01,WeatherDisplay:10.37,2013-10-26 23:46:00,
2013-10-26 19:47:00,43.2,30.2,29.88,SW,223,2.3,2.3,60,0.00,CLR,,0.01,WeatherDisplay:10.37,2013-10-26 23:47:00,
2013-10-26 19:49:00,43.2,30.6,29.88,South,185,0.0,0.0,61,0.00,CLR,,0.01,WeatherDisplay:10.37,2013-10-26 23:49:00,
2013-10-26 19:50:00,43.2,31.1,29.87,WSW,250,1.1,0.0,62,0.00,CLR,,0.01,WeatherDisplay:10.37,2013-10-26 23:50:00,
2013-10-26 19:51:00,43.2,31.1,29.88,WSW,256,1.1,1.1,62,0.00,CLR,,0.01,WeatherDisplay:10.37,2013-10-26 23:51:00,
2013-10-26 19:53:00,43.1,31.0,29.88,SSW,202,1.1,1.1,62,0.00,CLR,,0.01,WeatherDisplay:10.37,2013-10-26 23:53:00,
2013-10-26 19:55:00,43.1,31.0,29.88,SSW,203,0.0,0.0,62,0.00,CLR,,0.01,WeatherDisplay:10.37,2013-10-26 23:55:00,
2013-10-26 19:56:00,43.1,31.4,29.88,SE,143,1.1,1.1,63,0.00,CLR,,0.01,WeatherDisplay:10.37,2013-10-26 23:56:00,
2013-10-26 19:58:00,42.9,31.2,29.88,SE,141,1.1,1.1,63,0.00,CLR,,0.01,WeatherDisplay:10.37,2013-10-26 23:58:00,
2013-10-26 20:00:00,42.9,31.6,29.88,WNW,282,1.1,0.0,64,0.00,CLR,,0.01,WeatherDisplay:10.37,2013-10-27 00:00:00,
2013-10-26 20:01:00,42.9,31.6,29.87,East,100,1.0,0.0,64,0.00,CLR,,0.01,WeatherDisplay:10.37,2013-10-27 00:01:00,
2013-10-26 20:03:00,42.8,31.5,29.87,WSW,240,5.8,5.8,64,0.00,CLR,,0.01,WeatherDisplay:10.37,2013-10-27 00:03:00,
2013-10-26 20:05:00,42.8,32.2,29.87,SW,224,3.5,3.5,66,0.00,CLR,,0.01,WeatherDisplay:10.37,2013-10-27 00:05:00,
2013-10-26 20:06:00,42.6,32.4,29.87,ESE,123,0.0,0.2,67,0.00,CLR,,0.01,WeatherDisplay:10.37,2013-10-27 00:06:00,
2013-10-26 20:07:00,42.6,32.4,29.87,ESE,123,1.1,1.1,67,0.00,CLR,,0.01,WeatherDisplay:10.37,2013-10-27 00:07:00,
2013-10-26 20:08:00,42.5,33.0,29.87,South,186,0.0,0.2,69,0.00,CLR,,0.01,WeatherDisplay:10.37,2013-10-27 00:08:00,
2013-10-26 20:10:00,42.3,33.2,29.87,West,265,0.0,0.0,70,0.00,CLR,,0.01,WeatherDisplay:10.37,2013-10-27 00:10:00,
2013-10-26 20:11:00,42.3,33.2,29.87,West,270,0.0,0.0,70,0.00,CLR,,0.01,WeatherDisplay:10.37,2013-10-27 00:11:00,
2013-10-26 20:12:00,42.2,33.1,29.87,South,171,0.0,0.0,70,0.00,CLR,,0.01,WeatherDisplay:10.37,2013-10-27 00:12:00,
2013-10-26 20:13:00,42.1,33.4,29.87,WSW,248,1.1,1.1,71,0.00,CLR,,0.01,WeatherDisplay:10.37,2013-10-27 00:13:00,
2013-10-26 20:16:00,41.9,33.5,29.87,SSW,198,1.1,1.1,72,0.00,CLR,,0.02,WeatherDisplay:10.37,2013-10-27 00:16:00,
2013-10-26 20:17:00,41.8,33.8,29.87,South,186,0.0,0.0,73,0.01,RA,,0.02,WeatherDisplay:10.37,2013-10-27 00:17:00,
2013-10-26 20:18:00,41.8,34.1,29.87,SSW,206,0.0,0.0,74,0.01,RA,,0.02,WeatherDisplay:10.37,2013-10-27 00:18:00,
2013-10-26 20:21:00,41.5,34.2,29.87,SSW,192,0.0,0.0,75,0.01,RA,,0.02,WeatherDisplay:10.37,2013-10-27 00:21:00,
2013-10-26 20:22:00,41.5,34.5,29.87,SSW,192,0.0,0.0,76,0.01,RA,,0.02,WeatherDisplay:10.37,2013-10-27 00:22:00,
2013-10-26 20:23:00,41.3,34.3,29.87,SSW,202,1.1,0.0,76,0.01,RA,,0.02,WeatherDisplay:10.37,2013-10-27 00:23:00,
2013-10-26 20:26:00,41.2,34.2,29.88,WSW,258,0.0,0.0,76,0.01,RA,,0.02,WeatherDisplay:10.37,2013-10-27 00:26:00,
2013-10-26 20:27:00,41.2,34.2,29.88,WSW,253,0.0,0.0,76,0.01,,,0.02,WeatherDisplay:10.37,2013-10-27 00:27:00,
2013-10-26 20:28:00,41.1,34.1,29.88,South,172,0.0,0.0,76,0.01,,,0.02,WeatherDisplay:10.37,2013-10-27 00:28:00,
2013-10-26 20:32:00,41.2,34.2,29.88,West,274,1.1,1.1,76,0.01,CLR,,0.02,WeatherDisplay:10.37,2013-10-27 00:32:00,
2013-10-26 20:33:00,41.2,34.2,29.88,West,264,0.0,0.0,76,0.01,CLR,,0.02,WeatherDisplay:10.37,2013-10-27 00:33:00,
2013-10-26 20:35:00,41.2,33.9,29.89,West,268,1.1,0.0,75,0.01,CLR,,0.02,WeatherDisplay:10.37,2013-10-27 00:35:00,
2013-10-26 20:37:00,41.2,33.9,29.89,West,272,0.0,0.0,75,0.01,CLR,,0.02,WeatherDisplay:10.37,2013-10-27 00:37:00,
2013-10-26 20:38:00,41.3,34.0,29.89,West,272,0.0,0.0,75,0.01,CLR,,0.02,WeatherDisplay:10.37,2013-10-27 00:38:00,
2013-10-26 20:39:00,41.3,34.0,29.89,WSW,257,12.7,12.7,75,0.01,CLR,,0.02,WeatherDisplay:10.37,2013-10-27 00:39:00,
2013-10-26 20:40:00,41.3,34.0,29.89,West,267,11.5,11.5,75,0.01,CLR,,0.02,WeatherDisplay:10.37,2013-10-27 00:40:00,
2013-10-26 20:41:00,41.5,33.5,29.89,WNW,289,10.4,10.4,73,0.01,CLR,,0.02,WeatherDisplay:10.37,2013-10-27 00:41:00,
2013-10-26 20:43:00,41.6,33.6,29.90,West,263,1.1,1.1,73,0.01,CLR,,0.02,WeatherDisplay:10.37,2013-10-27 00:43:00,
2013-10-26 20:44:00,41.8,33.8,29.90,West,261,1.1,0.0,73,0.01,CLR,,0.02,WeatherDisplay:10.37,2013-10-27 00:44:00,
2013-10-26 20:45:00,41.8,33.8,29.90,NW,320,1.1,0.0,73,0.01,CLR,,0.02,WeatherDisplay:10.37,2013-10-27 00:45:00,
2013-10-26 20:46:00,41.9,33.9,29.91,West,281,8.1,8.1,73,0.01,CLR,,0.03,WeatherDisplay:10.37,2013-10-27 00:46:00,
2013-10-26 20:48:00,41.8,33.8,29.91,West,268,16.0,16.0,73,0.02,RA,,0.04,WeatherDisplay:10.37,2013-10-27 00:48:00,
2013-10-26 20:49:00,41.6,34.3,29.90,SW,236,19.6,19.6,75,0.03,RA,,0.05,WeatherDisplay:10.37,2013-10-27 00:49:00,
2013-10-26 20:50:00,41.5,34.5,29.90,West,274,12.7,12.7,76,0.04,RA,,0.05,WeatherDisplay:10.37,2013-10-27 00:50:00,
2013-10-26 20:52:00,41.1,35.1,29.91,WNW,287,19.6,19.6,79,0.05,RA,,0.06,WeatherDisplay:10.37,2013-10-27 00:52:00,
2013-10-26 20:53:00,40.9,34.9,29.91,NW,306,13.8,13.8,79,0.05,RA,,0.06,WeatherDisplay:10.37,2013-10-27 00:53:00,
2013-10-26 20:54:00,40.8,35.1,29.91,SW,236,11.5,11.5,80,0.05,RA,,0.07,WeatherDisplay:10.37,2013-10-27 00:54:00,
2013-10-26 20:55:00,40.6,35.5,29.91,WSW,239,11.5,11.5,82,0.06,RA,,0.07,WeatherDisplay:10.37,2013-10-27 00:55:00,
2013-10-26 20:58:00,40.5,35.7,29.91,West,270,13.8,13.8,83,0.06,RA,,0.07,WeatherDisplay:10.37,2013-10-27 00:58:00,
2013-10-26 20:59:00,40.3,35.5,29.91,WSW,250,10.4,10.4,83,0.06,RA,,0.07,WeatherDisplay:10.37,2013-10-27 00:59:00,
2013-10-26 21:00:00,40.3,35.8,29.91,WNW,282,8.1,0.0,84,0.06,RA,,0.08,WeatherDisplay:10.37,2013-10-27 01:00:00,
2013-10-26 21:01:00,40.3,36.1,29.91,WNW,282,0.0,0.0,85,0.07,RA,,0.08,WeatherDisplay:10.37,2013-10-27 01:01:00,
2013-10-26 21:03:00,40.2,36.3,29.92,West,263,4.6,4.6,86,0.08,RA,,0.09,WeatherDisplay:10.37,2013-10-27 01:03:00,
2013-10-26 21:04:00,40.1,36.2,29.92,WNW,287,7.0,7.0,86,0.08,RA,,0.09,WeatherDisplay:10.37,2013-10-27 01:04:00,
2013-10-26 21:06:00,40.1,36.5,29.91,WSW,250,8.0,8.0,87,0.08,RA,,0.09,WeatherDisplay:10.37,2013-10-27 01:06:00,
2013-10-26 21:07:00,39.9,36.3,29.92,SSW,205,12.7,12.7,87,0.08,RA,,0.10,WeatherDisplay:10.37,2013-10-27 01:07:00,
2013-10-26 21:08:00,39.9,36.6,29.92,West,271,13.0,13.0,88,0.09,RA,,0.10,WeatherDisplay:10.37,2013-10-27 01:08:00,
2013-10-26 21:09:00,39.9,36.6,29.92,West,261,16.0,16.0,88,0.09,RA,,0.10,WeatherDisplay:10.37,2013-10-27 01:09:00,
2013-10-26 21:10:00,39.9,36.9,29.92,WSW,237,19.6,19.6,89,0.09,RA,,0.10,WeatherDisplay:10.37,2013-10-27 01:10:00,
2013-10-26 21:11:00,39.9,36.9,29.92,NW,318,17.3,17.3,89,0.10,RA,,0.11,WeatherDisplay:10.37,2013-10-27 01:11:00,
2013-10-26 21:12:00,39.9,36.9,29.92,SSW,212,8.0,8.0,89,0.10,RA,,0.11,WeatherDisplay:10.37,2013-10-27 01:12:00,
2013-10-26 21:13:00,39.8,36.8,29.92,West,260,18.4,18.4,89,0.10,RA,,0.11,WeatherDisplay:10.37,2013-10-27 01:13:00,
2013-10-26 21:14:00,39.8,36.8,29.92,WSW,257,11.5,11.5,89,0.10,RA,,0.11,WeatherDisplay:10.37,2013-10-27 01:14:00,
2013-10-26 21:16:00,39.6,36.6,29.93,West,272,11.5,11.5,89,0.11,RA,,0.12,WeatherDisplay:10.37,2013-10-27 01:16:00,
2013-10-26 21:17:00,39.5,36.5,29.93,SW,222,11.5,11.5,89,0.11,RA,,0.13,WeatherDisplay:10.37,2013-10-27 01:17:00,
2013-10-26 21:18:00,39.5,36.5,29.93,WSW,239,7.0,7.0,89,0.11,RA,,0.13,WeatherDisplay:10.37,2013-10-27 01:18:00,
2013-10-26 21:19:00,39.2,36.5,29.93,WSW,239,11.5,11.5,90,0.11,RA,,0.14,WeatherDisplay:10.37,2013-10-27 01:19:00,
2013-10-26 21:22:00,39.1,36.4,29.92,SSW,199,0.0,0.0,90,0.13,RA,,0.15,WeatherDisplay:10.37,2013-10-27 01:22:00,
2013-10-26 21:23:00,38.9,36.2,29.92,SW,217,0.0,0.0,90,0.14,RA,,0.16,WeatherDisplay:10.37,2013-10-27 01:23:00,
2013-10-26 21:24:00,38.9,36.5,29.92,WSW,248,6.9,6.9,91,0.14,RA,,0.16,WeatherDisplay:10.37,2013-10-27 01:24:00,
2013-10-26 21:27:00,38.6,36.5,29.91,SW,222,0.0,2.2,92,0.15,RA,,0.17,WeatherDisplay:10.37,2013-10-27 01:27:00,
2013-10-26 21:28:00,38.5,36.4,29.91,SSE,160,11.5,11.5,92,0.15,RA,,0.17,WeatherDisplay:10.37,2013-10-27 01:28:00,
2013-10-26 21:29:00,38.5,36.4,29.91,South,176,1.1,0.0,92,0.15,RA,,0.17,WeatherDisplay:10.37,2013-10-27 01:29:00,
2013-10-26 21:30:00,38.3,36.2,29.91,SW,224,10.4,10.4,92,0.15,RA,,0.17,WeatherDisplay:10.37,2013-10-27 01:30:00,
2013-10-26 21:32:00,38.3,36.2,29.91,SSW,192,6.9,0.0,92,0.15,RA,,0.17,WeatherDisplay:10.37,2013-10-27 01:32:00,
2013-10-26 21:33:00,38.2,36.4,29.91,SSW,203,0.0,0.0,93,0.15,RA,,0.17,WeatherDisplay:10.37,2013-10-27 01:33:00,
2013-10-26 21:34:00,38.2,36.4,29.91,SSW,199,0.0,0.0,93,0.15,RA,,0.17,WeatherDisplay:10.37,2013-10-27 01:34:00,
2013-10-26 21:35:00,38.2,36.4,29.91,SSW,199,0.0,0.0,93,0.15,RA,,0.17,WeatherDisplay:10.37,2013-10-27 01:35:00,
2013-10-26 21:38:00,38.0,36.2,29.91,SSE,147,0.0,0.0,93,0.15,,,0.17,WeatherDisplay:10.37,2013-10-27 01:38:00,
2013-10-26 21:39:00,38.0,36.4,29.91,SSE,151,1.1,0.0,94,0.15,CLR,,0.17,WeatherDisplay:10.37,2013-10-27 01:39:00,
2013-10-26 21:40:00,38.2,36.6,29.91,WSW,248,1.1,1.1,94,0.15,CLR,,0.17,WeatherDisplay:10.37,2013-10-27 01:40:00,
2013-10-26 21:41:00,38.2,36.6,29.91,SW,219,1.1,0.0,94,0.15,CLR,,0.17,WeatherDisplay:10.37,2013-10-27 01:41:00,
2013-10-26 21:43:00,38.2,36.6,29.91,SSE,168,0.0,0.0,94,0.15,CLR,,0.17,WeatherDisplay:10.37,2013-10-27 01:43:00,
2013-10-26 21:44:00,38.2,36.6,29.91,SSW,202,1.1,1.1,94,0.15,CLR,,0.17,WeatherDisplay:10.37,2013-10-27 01:44:00,
2013-10-26 21:45:00,38.2,36.6,29.91,WSW,239,3.5,3.5,94,0.15,CLR,,0.17,WeatherDisplay:10.37,2013-10-27 01:45:00,
2013-10-26 21:46:00,38.2,36.6,29.91,SSE,158,0.0,0.0,94,0.15,CLR,,0.17,WeatherDisplay:10.37,2013-10-27 01:46:00,
2013-10-26 21:48:00,38.2,36.6,29.91,SSE,157,0.0,0.0,94,0.14,CLR,,0.17,WeatherDisplay:10.37,2013-10-27 01:48:00,
2013-10-26 21:49:00,38.2,36.6,29.91,SSE,160,0.0,0.0,94,0.13,CLR,,0.17,WeatherDisplay:10.37,2013-10-27 01:49:00,
2013-10-26 21:50:00,38.2,36.6,29.91,SW,219,0.0,0.0,94,0.12,CLR,,0.17,WeatherDisplay:10.37,2013-10-27 01:50:00,
2013-10-26 21:51:00,38.2,36.6,29.91,SW,219,0.0,0.0,94,0.12,CLR,,0.17,WeatherDisplay:10.37,2013-10-27 01:51:00,
2013-10-26 21:52:00,38.2,36.6,29.91,SW,220,0.0,0.0,94,0.11,CLR,,0.17,WeatherDisplay:10.37,2013-10-27 01:52:00,
2013-10-26 21:53:00,38.3,36.7,29.92,WSW,241,0.0,0.0,94,0.11,CLR,,0.17,WeatherDisplay:10.37,2013-10-27 01:53:00,
2013-10-26 21:54:00,38.3,36.7,29.92,SSE,151,0.0,0.0,94,0.11,CLR,,0.17,WeatherDisplay:10.37,2013-10-27 01:54:00,
2013-10-26 21:55:00,38.3,37.0,29.91,SSW,209,0.0,0.0,95,0.10,CLR,,0.17,WeatherDisplay:10.37,2013-10-27 01:55:00,
2013-10-26 21:56:00,38.3,37.0,29.91,SSW,209,0.0,0.0,95,0.10,CLR,,0.17,WeatherDisplay:10.37,2013-10-27 01:56:00,
2013-10-26 21:57:00,38.3,37.0,29.91,SW,216,1.1,0.0,95,0.10,CLR,,0.17,WeatherDisplay:10.37,2013-10-27 01:57:00,
2013-10-26 22:00:00,38.3,37.0,29.91,South,178,0.0,0.0,95,0.10,CLR,,0.17,WeatherDisplay:10.37,2013-10-27 02:00:00,
2013-10-26 22:02:00,38.3,37.0,29.91,SSW,192,0.0,0.0,95,0.09,CLR,,0.17,WeatherDisplay:10.37,2013-10-27 02:02:00,
2013-10-26 22:03:00,38.3,37.0,29.91,SSW,192,0.0,0.0,95,0.08,CLR,,0.17,WeatherDisplay:10.37,2013-10-27 02:03:00,
2013-10-26 22:05:00,38.3,37.0,29.91,SSW,203,0.0,0.0,95,0.08,CLR,,0.17,WeatherDisplay:10.37,2013-10-27 02:05:00,
2013-10-26 22:06:00,38.3,37.0,29.91,SSW,203,0.0,0.0,95,0.08,CLR,,0.17,WeatherDisplay:10.37,2013-10-27 02:06:00,
2013-10-26 22:07:00,38.3,37.0,29.91,SSW,203,0.0,0.0,95,0.08,CLR,,0.17,WeatherDisplay:10.37,2013-10-27 02:07:00,
2013-10-26 22:09:00,38.2,36.9,29.92,SSW,196,0.0,0.0,95,0.07,CLR,,0.17,WeatherDisplay:10.37,2013-10-27 02:09:00,
2013-10-26 22:10:00,38.2,36.9,29.92,WNW,285,0.0,0.5,95,0.07,CLR,,0.17,WeatherDisplay:10.37,2013-10-27 02:10:00,
2013-10-26 22:11:00,38.2,36.9,29.92,WNW,285,6.9,6.9,95,0.06,CLR,,0.17,WeatherDisplay:10.37,2013-10-27 02:11:00,
2013-10-26 22:12:00,38.2,36.9,29.92,SSW,195,0.0,0.0,95,0.06,CLR,,0.17,WeatherDisplay:10.37,2013-10-27 02:12:00,
2013-10-26 22:14:00,38.3,37.0,29.92,SW,223,0.0,0.0,95,0.06,CLR,,0.17,WeatherDisplay:10.37,2013-10-27 02:14:00,
2013-10-26 22:16:00,38.3,37.0,29.92,SW,223,0.0,0.0,95,0.05,CLR,,0.17,WeatherDisplay:10.37,2013-10-27 02:16:00,
2013-10-26 22:17:00,38.3,37.0,29.92,SW,223,0.0,0.0,95,0.04,CLR,,0.17,WeatherDisplay:10.37,2013-10-27 02:17:00,
2013-10-26 22:20:00,38.3,37.0,29.92,West,267,0.0,0.0,95,0.03,CLR,,0.17,WeatherDisplay:10.37,2013-10-27 02:20:00,
2013-10-26 22:21:00,38.3,37.0,29.92,SW,227,0.0,0.0,95,0.02,CLR,,0.17,WeatherDisplay:10.37,2013-10-27 02:21:00,
2013-10-26 22:22:00,38.3,37.0,29.92,SSW,212,1.1,0.0,95,0.02,CLR,,0.17,WeatherDisplay:10.37,2013-10-27 02:22:00,
2013-10-26 22:25:00,38.3,37.3,29.92,SSE,161,0.0,0.0,96,0.01,CLR,,0.17,WeatherDisplay:10.37,2013-10-27 02:25:00,
2013-10-26 22:26:00,38.3,37.3,29.92,SSE,165,0.0,0.0,96,0.01,CLR,,0.17,WeatherDisplay:10.37,2013-10-27 02:26:00,
2013-10-26 22:27:00,38.3,37.3,29.92,South,172,0.0,0.0,96,0.00,CLR,,0.17,WeatherDisplay:10.37,2013-10-27 02:27:00,
2013-10-26 22:30:00,38.3,37.3,29.92,SSW,199,0.0,0.0,96,0.00,CLR,,0.17,WeatherDisplay:10.37,2013-10-27 02:30:00,
2013-10-26 22:31:00,38.3,37.3,29.92,South,184,0.0,0.0,96,0.00,CLR,,0.17,WeatherDisplay:10.37,2013-10-27 02:31:00,
2013-10-26 22:32:00,38.3,37.3,29.93,SSE,148,0.0,0.0,96,0.00,CLR,,0.17,WeatherDisplay:10.37,2013-10-27 02:32:00,
2013-10-26 22:33:00,38.3,37.3,29.93,SSW,193,1.1,0.0,96,0.00,CLR,,0.17,WeatherDisplay:10.37,2013-10-27 02:33:00,
2013-10-26 22:35:00,38.5,37.5,29.93,WSW,256,11.5,11.5,96,0.00,CLR,,0.17,WeatherDisplay:10.37,2013-10-27 02:35:00,
2013-10-26 22:36:00,38.5,37.5,29.93,WSW,256,9.2,0.0,96,0.00,CLR,,0.18,WeatherDisplay:10.37,2013-10-27 02:36:00,
2013-10-26 22:37:00,38.5,37.5,29.93,WSW,256,0.0,0.0,96,0.01,RA,,0.18,WeatherDisplay:10.37,2013-10-27 02:37:00,
2013-10-26 22:38:00,38.5,37.5,29.93,West,264,1.1,1.1,96,0.01,RA,,0.18,WeatherDisplay:10.37,2013-10-27 02:38:00,
2013-10-26 22:41:00,38.5,37.5,29.93,WNW,282,3.0,3.0,96,0.01,RA,,0.18,WeatherDisplay:10.37,2013-10-27 02:41:00,
2013-10-26 22:42:00,38.6,37.6,29.93,SE,141,5.8,5.8,96,0.01,RA,,0.19,WeatherDisplay:10.37,2013-10-27 02:42:00,
2013-10-26 22:43:00,38.6,37.6,29.93,West,272,8.1,8.1,96,0.02,RA,,0.19,WeatherDisplay:10.37,2013-10-27 02:43:00,
2013-10-26 22:46:00,38.8,37.8,29.93,West,263,10.4,0.0,96,0.02,RA,,0.19,WeatherDisplay:10.37,2013-10-27 02:46:00,
2013-10-26 22:48:00,38.8,37.8,29.93,SW,229,1.1,1.1,96,0.03,RA,,0.20,WeatherDisplay:10.37,2013-10-27 02:48:00,
2013-10-26 22:49:00,38.8,37.8,29.93,SW,222,0.0,0.0,96,0.03,RA,,0.20,WeatherDisplay:10.37,2013-10-27 02:49:00,
2013-10-26 22:51:00,38.8,37.8,29.92,SSE,155,1.1,0.0,96,0.03,RA,,0.20,WeatherDisplay:10.37,2013-10-27 02:51:00,
2013-10-26 22:53:00,38.8,37.8,29.93,SSE,167,1.1,0.0,96,0.03,RA,,0.20,WeatherDisplay:10.37,2013-10-27 02:53:00,
2013-10-26 22:54:00,38.8,37.8,29.93,SSE,167,1.1,0.0,96,0.03,RA,,0.20,WeatherDisplay:10.37,2013-10-27 02:54:00,
2013-10-26 22:56:00,38.8,37.8,29.93,SSW,196,0.0,0.0,96,0.03,RA,,0.20,WeatherDisplay:10.37,2013-10-27 02:56:00,
2013-10-26 22:57:00,38.8,37.8,29.93,SSW,196,0.0,0.0,96,0.03,,,0.20,WeatherDisplay:10.37,2013-10-27 02:57:00,
2013-10-26 22:58:00,38.8,37.8,29.93,SSW,196,0.0,0.0,96,0.03,,,0.20,WeatherDisplay:10.37,2013-10-27 02:58:00,
2013-10-26 22:59:00,38.8,37.8,29.93,SSW,196,0.0,0.0,96,0.03,CLR,,0.20,WeatherDisplay:10.37,2013-10-27 02:59:00,
2013-10-26 23:00:00,38.8,37.8,29.93,SSW,196,0.0,0.0,96,0.03,CLR,,0.20,WeatherDisplay:10.37,2013-10-27 03:00:00,
2013-10-26 23:02:00,38.9,37.9,29.94,WSW,244,0.0,0.0,96,0.04,RA,,0.21,WeatherDisplay:10.37,2013-10-27 03:02:00,
2013-10-26 23:03:00,38.9,37.9,29.94,WSW,244,0.0,0.0,96,0.04,RA,,0.21,WeatherDisplay:10.37,2013-10-27 03:03:00,
2013-10-26 23:04:00,38.9,37.9,29.94,WSW,253,0.0,0.0,96,0.04,RA,,0.21,WeatherDisplay:10.37,2013-10-27 03:04:00,
2013-10-26 23:05:00,38.9,37.9,29.94,SW,226,0.0,0.0,96,0.04,RA,,0.21,WeatherDisplay:10.37,2013-10-27 03:05:00,
2013-10-26 23:07:00,38.9,37.9,29.94,WSW,253,0.0,0.0,96,0.04,RA,,0.21,WeatherDisplay:10.37,2013-10-27 03:07:00,
2013-10-26 23:09:00,38.9,37.9,29.94,West,261,0.0,0.0,96,0.05,RA,,0.22,WeatherDisplay:10.37,2013-10-27 03:09:00,
2013-10-26 23:10:00,38.9,37.9,29.94,West,261,0.0,0.0,96,0.05,RA,,0.22,WeatherDisplay:10.37,2013-10-27 03:10:00,
2013-10-26 23:12:00,38.9,37.9,29.93,South,184,0.0,0.0,96,0.05,RA,,0.22,WeatherDisplay:10.37,2013-10-27 03:12:00,
2013-10-26 23:14:00,38.9,38.1,29.93,South,179,0.0,0.0,97,0.05,RA,,0.22,WeatherDisplay:10.37,2013-10-27 03:14:00,
2013-10-26 23:15:00,38.9,38.1,29.93,South,179,0.0,0.0,97,0.05,RA,,0.22,WeatherDisplay:10.37,2013-10-27 03:15:00,
2013-10-26 23:17:00,39.1,38.3,29.93,South,185,0.0,0.0,97,0.05,RA,,0.22,WeatherDisplay:10.37,2013-10-27 03:17:00,
2013-10-26 23:18:00,39.1,38.3,29.93,South,185,0.0,0.0,97,0.05,RA,,0.22,WeatherDisplay:10.37,2013-10-27 03:18:00,
2013-10-26 23:19:00,39.1,38.3,29.93,South,185,0.0,0.0,97,0.05,,,0.22,WeatherDisplay:10.37,2013-10-27 03:19:00,
2013-10-26 23:20:00,39.1,38.3,29.93,South,185,0.0,0.0,97,0.05,,,0.22,WeatherDisplay:10.37,2013-10-27 03:20:00,
2013-10-26 23:21:00,39.1,38.3,29.93,South,185,0.0,0.0,97,0.05,CLR,,0.22,WeatherDisplay:10.37,2013-10-27 03:21:00,
2013-10-26 23:22:00,39.1,38.3,29.94,SW,226,0.0,0.0,97,0.05,CLR,,0.22,WeatherDisplay:10.37,2013-10-27 03:22:00,
2013-10-26 23:23:00,39.1,38.3,29.94,SW,226,0.0,0.0,97,0.05,CLR,,0.22,WeatherDisplay:10.37,2013-10-27 03:23:00,
2013-10-26 23:24:00,39.1,38.3,29.94,WSW,237,4.6,4.6,97,0.05,CLR,,0.22,WeatherDisplay:10.37,2013-10-27 03:24:00,
2013-10-26 23:25:00,39.1,38.3,29.94,WSW,237,4.6,4.6,97,0.05,CLR,,0.22,WeatherDisplay:10.37,2013-10-27 03:25:00,
2013-10-26 23:26:00,39.1,38.3,29.94,WSW,237,4.6,0.0,97,0.05,CLR,,0.22,WeatherDisplay:10.37,2013-10-27 03:26:00,
2013-10-26 23:28:00,39.2,38.4,29.94,SSW,209,0.0,0.0,97,0.05,CLR,,0.22,WeatherDisplay:10.37,2013-10-27 03:28:00,
2013-10-26 23:29:00,39.2,38.4,29.94,SSW,209,0.0,0.0,97,0.05,CLR,,0.22,WeatherDisplay:10.37,2013-10-27 03:29:00,
2013-10-26 23:30:00,39.1,38.3,29.94,SSW,209,0.0,0.0,97,0.05,CLR,,0.22,WeatherDisplay:10.37,2013-10-27 03:30:00,
2013-10-26 23:31:00,39.2,38.4,29.94,SSW,209,0.0,0.0,97,0.05,CLR,,0.22,WeatherDisplay:10.37,2013-10-27 03:31:00,
2013-10-26 23:32:00,39.1,38.3,29.94,SSW,209,0.0,0.0,97,0.05,CLR,,0.22,WeatherDisplay:10.37,2013-10-27 03:32:00,
2013-10-26 23:33:00,39.2,38.4,29.94,SSW,209,0.0,0.0,97,0.05,CLR,,0.22,WeatherDisplay:10.37,2013-10-27 03:33:00,
2013-10-26 23:34:00,39.2,38.4,29.94,SSW,209,0.0,0.0,97,0.05,CLR,,0.22,WeatherDisplay:10.37,2013-10-27 03:34:00,
2013-10-26 23:36:00,39.2,38.4,29.94,SSW,209,0.0,0.0,97,0.05,CLR,,0.22,WeatherDisplay:10.37,2013-10-27 03:36:00,
2013-10-26 23:37:00,39.2,38.4,29.94,SSW,209,0.0,0.0,97,0.04,CLR,,0.22,WeatherDisplay:10.37,2013-10-27 03:37:00,
2013-10-26 23:39:00,39.3,38.5,29.94,SSW,209,0.0,0.0,97,0.04,CLR,,0.22,WeatherDisplay:10.37,2013-10-27 03:39:00,
2013-10-26 23:42:00,39.3,38.5,29.93,SSW,209,0.0,0.0,97,0.04,CLR,,0.22,WeatherDisplay:10.37,2013-10-27 03:42:00,
2013-10-26 23:43:00,39.3,38.5,29.93,SSW,209,0.0,0.0,97,0.03,CLR,,0.22,WeatherDisplay:10.37,2013-10-27 03:43:00,
2013-10-26 23:45:00,39.5,38.7,29.93,SSW,209,0.0,0.0,97,0.03,CLR,,0.22,WeatherDisplay:10.37,2013-10-27 03:45:00,
2013-10-26 23:47:00,39.5,38.7,29.93,SSW,209,0.0,0.0,97,0.02,CLR,,0.22,WeatherDisplay:10.37,2013-10-27 03:47:00,
2013-10-26 23:48:00,39.5,38.7,29.93,SSW,209,0.0,0.0,97,0.02,CLR,,0.22,WeatherDisplay:10.37,2013-10-27 03:48:00,
2013-10-26 23:49:00,39.6,38.8,29.94,SSW,209,0.0,0.0,97,0.02,CLR,,0.22,WeatherDisplay:10.37,2013-10-27 03:49:00,
2013-10-26 23:50:00,39.6,38.8,29.94,SSW,209,0.0,0.0,97,0.02,CLR,,0.22,WeatherDisplay:10.37,2013-10-27 03:50:00,
2013-10-26 23:53:00,39.9,39.1,29.94,West,274,1.0,2.1,97,0.02,CLR,,0.22,WeatherDisplay:10.37,2013-10-27 03:53:00,
2013-10-26 23:54:00,40.1,39.6,29.94,West,274,10.4,10.4,98,0.02,CLR,,0.22,WeatherDisplay:10.37,2013-10-27 03:54:00,
2013-10-26 23:55:00,40.1,39.3,29.94,West,274,0.0,0.0,97,0.02,CLR,,0.22,WeatherDisplay:10.37,2013-10-27 03:55:00,
2013-10-26 23:58:00,40.1,39.3,29.94,West,263,0.0,0.0,97,0.02,CLR,,0.22,WeatherDisplay:10.37,2013-10-27 03:58:00,
2013-10-26 23:59:00,40.1,39.3,29.94,WSW,256,1.1,1.1,97,0.02,CLR,,0.22,WeatherDisplay:10.37,2013-10-27 03:59:00,